Darstellungsparameter: Aktuell verwendete Einstellungen:
Skalierung der Graphiken ... ?
xyx+y,   Skalierungsfaktor:      Skalierung: Modus: x, Faktor: 1
Darstellungszeitraum ... ?
Vom - - bis: - -   Zeitraum: 19.01.2019 - 23.01.2019
Min/Max/Avg-Anzeige ... ?
Zeige MMA aktuell
Zeige MMA Monat
Zeige MMA alles
Zeige --A aktuell
Zeige --A Monat
Zeige --A alles
Keine MMA-Anzeige
MMA:
Average (ber die Originaldaten)
MMA-Basis: 19.01.2019 - 23.01.2019
Quicknavigation für Darstellung... ?
Tage:      1T, 2T, 3T, 5T -1T -2T -3T -5T +1T +2T +3T +5T
Wochen: 1W, 2W, 3W -1W -2W -3W +1W +2W +3W
Monate: 1M, 3M, 6M -1M -3M -6M +1M +3M +6M
Jahre:    1J, 3J, 5J, 10J -1J -3J -5J -10J +1J +3J +5J +10J
Nutze für die Darstellung ... ?
Originaldaten oder Mittelwerte auf ...
Stundenbasis Tagesbasis Wochenbasis
Monatsbasis Jahresbasis      Datenbasis: Original-Daten
Darstellen als:
Statistik (Auto) Statistik J:M      Darstellung:
Zur Graphik,    zurück zur Übersicht aller Sensoren.
 
Tabellarische Datenbersicht: ?
 
Sensor: Nr:Datum:Temp:Abs-Feuchte:Windchill:Wind:
Aussen-T/F 1 19-01-2019 00:00:00 -1.7 C 4 g/m*3 -1.7 C 0 km/h
2 19-01-2019 00:05:00 -1.8 C 3.98 g/m*3 -1.8 C 0 km/h
3 19-01-2019 00:10:00 -1.8 C 3.98 g/m*3 -1.8 C 0 km/h
4 19-01-2019 00:15:00 -1.8 C 3.98 g/m*3 -1.8 C 0 km/h
5 19-01-2019 00:20:00 -1.9 C 3.95 g/m*3 -1.9 C 0 km/h
6 19-01-2019 00:25:00 -2 C 3.92 g/m*3 -2 C 0 km/h
7 19-01-2019 00:30:00 -2.1 C 3.89 g/m*3 -2.1 C 0 km/h
8 19-01-2019 00:35:00 -2.1 C 3.89 g/m*3 -2.1 C 0 km/h
9 19-01-2019 00:40:00 -2.2 C 3.87 g/m*3 -2.2 C 0 km/h
10 19-01-2019 00:45:00 -2.2 C 3.87 g/m*3 -2.2 C 0 km/h
11 19-01-2019 00:50:00 -2.2 C 3.87 g/m*3 -2.2 C 0 km/h
12 19-01-2019 00:55:00 -2.3 C 3.88 g/m*3 -2.3 C 0 km/h
13 19-01-2019 01:00:00 -2.3 C 3.88 g/m*3 -2.3 C 0 km/h
14 19-01-2019 01:05:00 -2.4 C 3.81 g/m*3 -2.4 C 0 km/h
15 19-01-2019 01:10:00 -2.4 C 3.81 g/m*3 -2.4 C 0 km/h
16 19-01-2019 01:15:00 -2.5 C 3.83 g/m*3 -2.5 C 0 km/h
17 19-01-2019 01:20:00 -2.6 C 3.8 g/m*3 -2.6 C 0 km/h
18 19-01-2019 01:25:00 -2.6 C 3.8 g/m*3 -2.6 C 0 km/h
19 19-01-2019 01:30:00 -2.6 C 3.8 g/m*3 -2.6 C 0 km/h
20 19-01-2019 01:35:00 -2.7 C 3.77 g/m*3 -2.7 C 0 km/h
21 19-01-2019 01:40:00 -2.7 C 3.77 g/m*3 -2.7 C 0 km/h
22 19-01-2019 01:45:00 -2.7 C 3.77 g/m*3 -2.7 C 0 km/h
23 19-01-2019 01:50:00 -2.7 C 3.77 g/m*3 -2.7 C 0 km/h
24 19-01-2019 01:55:00 -2.8 C 3.75 g/m*3 -2.8 C 0 km/h
25 19-01-2019 02:00:00 -2.8 C 3.75 g/m*3 -2.8 C 0 km/h
Sensor: Nr:Datum:Temp:Abs-Feuchte:Windchill:Wind:
Aussen-T/F 26 19-01-2019 02:05:00 -2.8 C 3.75 g/m*3 -2.8 C 0 km/h
27 19-01-2019 02:10:00 -2.8 C 3.75 g/m*3 -2.8 C 0 km/h
28 19-01-2019 02:15:00 -2.8 C 3.75 g/m*3 -2.8 C 0 km/h
29 19-01-2019 02:20:00 -2.9 C 3.72 g/m*3 -2.9 C 0 km/h
30 19-01-2019 02:25:00 -2.9 C 3.72 g/m*3 -2.9 C 0 km/h
31 19-01-2019 02:30:00 -2.9 C 3.72 g/m*3 -2.9 C 0 km/h
32 19-01-2019 02:35:00 -3 C 3.69 g/m*3 -3 C 0 km/h
33 19-01-2019 02:40:00 -3 C 3.69 g/m*3 -3 C 0 km/h
34 19-01-2019 02:45:00 -3 C 3.69 g/m*3 -3 C 0 km/h
35 19-01-2019 02:50:00 -2.9 C 3.72 g/m*3 -2.9 C 0 km/h
36 19-01-2019 02:55:00 -3 C 3.69 g/m*3 -3 C 0 km/h
37 19-01-2019 03:00:00 -3.1 C 3.67 g/m*3 -3.1 C 0 km/h
38 19-01-2019 03:05:00 -3.2 C 3.64 g/m*3 -3.2 C 0 km/h
39 19-01-2019 03:10:00 -3.2 C 3.64 g/m*3 -3.2 C 0 km/h
40 19-01-2019 03:15:00 -3.2 C 3.68 g/m*3 -3.2 C 0 km/h
41 19-01-2019 03:20:00 -3.2 C 3.68 g/m*3 -3.2 C 0 km/h
42 19-01-2019 03:25:00 -3.2 C 3.68 g/m*3 -3.2 C 0 km/h
43 19-01-2019 03:30:00 -3.2 C 3.68 g/m*3 -3.2 C 0 km/h
44 19-01-2019 03:35:00 -3.2 C 3.68 g/m*3 -3.2 C 0 km/h
45 19-01-2019 03:40:00 -3.2 C 3.68 g/m*3 -3.2 C 0 km/h
46 19-01-2019 03:45:00 -3.3 C 3.61 g/m*3 -3.3 C 0 km/h
47 19-01-2019 03:50:00 -3.4 C 3.63 g/m*3 -3.4 C 0 km/h
48 19-01-2019 03:55:00 -3.4 C 3.63 g/m*3 -3.4 C 0 km/h
49 19-01-2019 04:00:00 -3.4 C 3.63 g/m*3 -3.4 C 0 km/h
50 19-01-2019 04:05:00 -3.5 C 3.6 g/m*3 -3.5 C 0 km/h
Sensor: Nr:Datum:Temp:Abs-Feuchte:Windchill:Wind:
Aussen-T/F 51 19-01-2019 04:10:00 -3.6 C 3.58 g/m*3 -3.6 C 0 km/h
52 19-01-2019 04:15:00 -3.6 C 3.54 g/m*3 -3.6 C 0 km/h
53 19-01-2019 04:20:00 -3.6 C 3.58 g/m*3 -3.6 C 0 km/h
54 19-01-2019 04:25:00 -3.6 C 3.58 g/m*3 -3.6 C 0 km/h
55 19-01-2019 04:30:00 -3.6 C 3.58 g/m*3 -3.6 C 0 km/h
56 19-01-2019 04:35:00 -3.6 C 3.58 g/m*3 -3.6 C 0 km/h
57 19-01-2019 04:40:00 -3.6 C 3.58 g/m*3 -3.6 C 0 km/h
58 19-01-2019 04:45:00 -3.6 C 3.58 g/m*3 -3.6 C 0 km/h
59 19-01-2019 04:50:00 -3.6 C 3.58 g/m*3 -3.6 C 0 km/h
60 19-01-2019 04:55:00 -3.6 C 3.58 g/m*3 -3.6 C 0 km/h
61 19-01-2019 05:00:00 -3.6 C 3.58 g/m*3 -3.6 C 0 km/h
62 19-01-2019 05:05:00 -3.7 C 3.55 g/m*3 -3.7 C 0 km/h
63 19-01-2019 05:10:00 -3.7 C 3.55 g/m*3 -3.7 C 0 km/h
64 19-01-2019 05:15:00 -3.8 C 3.53 g/m*3 -3.8 C 0 km/h
65 19-01-2019 05:20:00 -3.8 C 3.53 g/m*3 -3.8 C 0 km/h
66 19-01-2019 05:25:00 -3.9 C 3.5 g/m*3 -3.9 C 0 km/h
67 19-01-2019 05:30:00 -3.9 C 3.5 g/m*3 -3.9 C 0 km/h
68 19-01-2019 05:35:00 -4 C 3.48 g/m*3 -4 C 0 km/h
69 19-01-2019 05:40:00 -4.1 C 3.45 g/m*3 -4.1 C 0 km/h
70 19-01-2019 05:45:00 -4 C 3.48 g/m*3 -4 C 0 km/h
71 19-01-2019 05:50:00 -3.9 C 3.5 g/m*3 -3.9 C 0 km/h
72 19-01-2019 05:55:00 -3.8 C 3.53 g/m*3 -3.8 C 0 km/h
73 19-01-2019 06:00:00 -3.7 C 3.55 g/m*3 -3.7 C 0 km/h
74 19-01-2019 06:05:00 -3.7 C 3.55 g/m*3 -3.7 C 0 km/h
75 19-01-2019 06:10:00 -3.7 C 3.55 g/m*3 -3.7 C 0 km/h
Sensor: Nr:Datum:Temp:Abs-Feuchte:Windchill:Wind:
Aussen-T/F 76 19-01-2019 06:15:00 -3.8 C 3.53 g/m*3 -3.8 C 0 km/h
77 19-01-2019 06:20:00 -3.9 C 3.5 g/m*3 -3.9 C 0 km/h
78 19-01-2019 06:25:00 -4.1 C 3.45 g/m*3 -4.1 C 0 km/h
79 19-01-2019 06:30:00 -4.2 C 3.43 g/m*3 -4.2 C 0 km/h
80 19-01-2019 06:35:00 -4.3 C 3.4 g/m*3 -4.3 C 0 km/h
81 19-01-2019 06:40:00 -4.3 C 3.4 g/m*3 -4.3 C 0 km/h
82 19-01-2019 06:45:00 -4.4 C 3.38 g/m*3 -4.4 C 0 km/h
83 19-01-2019 06:50:00 -4.3 C 3.4 g/m*3 -4.3 C 0 km/h
84 19-01-2019 06:55:00 -4.3 C 3.4 g/m*3 -4.3 C 0 km/h
85 19-01-2019 07:00:00 -4.3 C 3.4 g/m*3 -4.3 C 0 km/h
86 19-01-2019 07:05:00 -4.4 C 3.38 g/m*3 -4.4 C 0 km/h
87 19-01-2019 07:10:00 -4.4 C 3.38 g/m*3 -4.4 C 0 km/h
88 19-01-2019 07:15:00 -4.4 C 3.38 g/m*3 -4.4 C 0 km/h
89 19-01-2019 07:20:00 -4.4 C 3.38 g/m*3 -4.4 C 0 km/h
90 19-01-2019 07:25:00 -4.4 C 3.38 g/m*3 -4.4 C 0 km/h
91 19-01-2019 07:30:00 -4.6 C 3.33 g/m*3 -4.6 C 0 km/h
92 19-01-2019 07:35:00 -4.6 C 3.33 g/m*3 -4.6 C 0 km/h
93 19-01-2019 07:40:00 -4.6 C 3.33 g/m*3 -4.6 C 0 km/h
94 19-01-2019 07:45:00 -4.6 C 3.33 g/m*3 -4.6 C 0 km/h
95 19-01-2019 07:50:00 -4.7 C 3.31 g/m*3 -4.7 C 0 km/h
96 19-01-2019 07:55:00 -4.7 C 3.31 g/m*3 -4.7 C 0 km/h
97 19-01-2019 08:00:00 -4.7 C 3.31 g/m*3 -4.7 C 0 km/h
98 19-01-2019 08:05:00 -4.7 C 3.31 g/m*3 -4.7 C 0 km/h
99 19-01-2019 08:10:00 -4.8 C 3.28 g/m*3 -4.8 C 0 km/h
100 19-01-2019 08:15:00 -4.8 C 3.28 g/m*3 -4.8 C 0 km/h
Sensor: Nr:Datum:Temp:Abs-Feuchte:Windchill:Wind:
Aussen-T/F 101 19-01-2019 08:20:00 -4.8 C 3.28 g/m*3 -4.8 C 0 km/h
102 19-01-2019 08:25:00 -4.8 C 3.28 g/m*3 -4.8 C 0 km/h
103 19-01-2019 08:30:00 -4.8 C 3.28 g/m*3 -4.8 C 0 km/h
104 19-01-2019 08:35:00 -4.8 C 3.28 g/m*3 -4.8 C 0 km/h
105 19-01-2019 08:40:00 -4.8 C 3.28 g/m*3 -4.8 C 0 km/h
106 19-01-2019 08:45:00 -4.8 C 3.28 g/m*3 -4.8 C 0 km/h
107 19-01-2019 08:50:00 -4.8 C 3.28 g/m*3 -4.8 C 0 km/h
108 19-01-2019 08:55:00 -4.8 C 3.28 g/m*3 -4.8 C 0 km/h
109 19-01-2019 09:00:00 -4.7 C 3.31 g/m*3 -4.7 C 0 km/h
110 19-01-2019 09:05:00 -4.7 C 3.31 g/m*3 -4.7 C 0 km/h
111 19-01-2019 09:10:00 -4.7 C 3.31 g/m*3 -4.7 C 0 km/h
112 19-01-2019 09:15:00 -4.7 C 3.31 g/m*3 -4.7 C 0 km/h
113 19-01-2019 09:20:00 -4.6 C 3.33 g/m*3 -4.6 C 0 km/h
114 19-01-2019 09:25:00 -4.6 C 3.33 g/m*3 -4.6 C 0 km/h
115 19-01-2019 09:30:00 -4.6 C 3.33 g/m*3 -4.6 C 0 km/h
116 19-01-2019 09:35:00 -4.5 C 3.35 g/m*3 -4.5 C 0 km/h
117 19-01-2019 09:40:00 -4.5 C 3.35 g/m*3 -4.5 C 0 km/h
118 19-01-2019 09:45:00 -4.5 C 3.35 g/m*3 -4.5 C 0 km/h
119 19-01-2019 09:50:00 -4.5 C 3.35 g/m*3 -4.5 C 0 km/h
120 19-01-2019 09:55:00 -4.4 C 3.38 g/m*3 -4.4 C 0 km/h
121 19-01-2019 10:00:00 -4.4 C 3.38 g/m*3 -4.4 C 0 km/h
122 19-01-2019 10:05:00 -4.3 C 3.4 g/m*3 -4.3 C 0 km/h
123 19-01-2019 10:10:00 -4.3 C 3.4 g/m*3 -4.3 C 0 km/h
124 19-01-2019 10:15:00 -4.2 C 3.43 g/m*3 -4.2 C 0 km/h
125 19-01-2019 10:20:00 -4.1 C 3.49 g/m*3 -4.1 C 0 km/h
Sensor: Nr:Datum:Temp:Abs-Feuchte:Windchill:Wind:
Aussen-T/F 126 19-01-2019 10:25:00 -4 C 3.48 g/m*3 -4 C 0 km/h
127 19-01-2019 10:30:00 -3.9 C 3.54 g/m*3 -3.9 C 0 km/h
128 19-01-2019 10:35:00 -3.7 C 3.59 g/m*3 -3.7 C 0 km/h
129 19-01-2019 10:40:00 -3.6 C 3.61 g/m*3 -3.6 C 0 km/h
130 19-01-2019 10:45:00 -3.4 C 3.67 g/m*3 -3.4 C 0 km/h
131 19-01-2019 10:50:00 -3.3 C 3.69 g/m*3 -3.3 C 0 km/h
132 19-01-2019 10:55:00 -3.2 C 3.72 g/m*3 -3.2 C 0 km/h
133 19-01-2019 11:00:00 -3.1 C 3.74 g/m*3 -3.1 C 0 km/h
134 19-01-2019 11:05:00 -2.9 C 3.8 g/m*3 -2.9 C 0 km/h
135 19-01-2019 11:10:00 -2.9 C 3.8 g/m*3 -2.9 C 0 km/h
136 19-01-2019 11:15:00 -2.8 C 3.82 g/m*3 -2.8 C 0 km/h
137 19-01-2019 11:20:00 -2.8 C 3.82 g/m*3 -2.8 C 0 km/h
138 19-01-2019 11:25:00 -2.8 C 3.82 g/m*3 -2.8 C 1.6 km/h
139 19-01-2019 11:30:00 -2.7 C 3.85 g/m*3 -2.7 C 1.6 km/h
140 19-01-2019 11:35:00 -2.7 C 3.85 g/m*3 -2.7 C 0 km/h
141 19-01-2019 11:40:00 -2.7 C 3.85 g/m*3 -2.7 C 1.6 km/h
142 19-01-2019 11:45:00 -2.6 C 3.88 g/m*3 -2.6 C 3.2 km/h
143 19-01-2019 11:50:00 -2.6 C 3.88 g/m*3 -2.6 C 1.6 km/h
144 19-01-2019 11:55:00 -2.6 C 3.88 g/m*3 -2.6 C 0 km/h
145 19-01-2019 12:00:00 -2.5 C 3.91 g/m*3 -2.5 C 0 km/h
146 19-01-2019 12:05:00 -2.4 C 3.93 g/m*3 -2.4 C 1.6 km/h
147 19-01-2019 12:10:00 -2.4 C 3.93 g/m*3 -2.4 C 0 km/h
148 19-01-2019 12:15:00 -2.4 C 3.93 g/m*3 -2.4 C 0 km/h
149 19-01-2019 12:20:00 -2.3 C 3.96 g/m*3 -2.3 C 1.6 km/h
150 19-01-2019 12:25:00 -2.3 C 3.96 g/m*3 -2.3 C 1.6 km/h
Sensor: Nr:Datum:Temp:Abs-Feuchte:Windchill:Wind:
Aussen-T/F 151 19-01-2019 12:30:00 -2.2 C 3.99 g/m*3 -2.2 C 1.6 km/h
152 19-01-2019 12:35:00 -2.2 C 3.99 g/m*3 -2.2 C 1.6 km/h
153 19-01-2019 12:40:00 -2.2 C 3.99 g/m*3 -2.2 C 3.2 km/h
154 19-01-2019 12:45:00 -2.1 C 4.02 g/m*3 -2.1 C 3.2 km/h
155 19-01-2019 12:50:00 -1.9 C 4.08 g/m*3 -1.9 C 3.2 km/h
156 19-01-2019 12:55:00 -1.9 C 4.08 g/m*3 -1.9 C 3.2 km/h
157 19-01-2019 13:00:00 -1.8 C 4.1 g/m*3 -1.8 C 3.2 km/h
158 19-01-2019 13:05:00 -1.7 C 4.13 g/m*3 -1.7 C 3.2 km/h
159 19-01-2019 13:10:00 -1.7 C 4.13 g/m*3 -1.7 C 1.6 km/h
160 19-01-2019 13:15:00 -1.6 C 4.16 g/m*3 -1.6 C 1.6 km/h
161 19-01-2019 13:20:00 -1.5 C 4.19 g/m*3 -1.5 C 1.6 km/h
162 19-01-2019 13:25:00 -1.4 C 4.22 g/m*3 -1.4 C 3.2 km/h
163 19-01-2019 13:30:00 -1.3 C 4.25 g/m*3 -1.3 C 3.2 km/h
164 19-01-2019 13:35:00 -1.3 C 4.25 g/m*3 -1.3 C 3.2 km/h
165 19-01-2019 13:40:00 -1.2 C 4.28 g/m*3 -1.2 C 3.2 km/h
166 19-01-2019 13:45:00 -1.1 C 4.31 g/m*3 -1.1 C 3.2 km/h
167 19-01-2019 13:50:00 -0.9 C 4.37 g/m*3 -0.9 C 0 km/h
168 19-01-2019 13:55:00 -0.8 C 4.4 g/m*3 -0.8 C 0 km/h
169 19-01-2019 14:00:00 -0.7 C 4.43 g/m*3 -0.7 C 1.6 km/h
170 19-01-2019 14:05:00 -0.6 C 4.46 g/m*3 -0.6 C 3.2 km/h
171 19-01-2019 14:10:00 -0.6 C 4.46 g/m*3 -0.6 C 3.2 km/h
172 19-01-2019 14:15:00 -0.4 C 4.48 g/m*3 -0.4 C 1.6 km/h
173 19-01-2019 14:20:00 -0.3 C 4.56 g/m*3 -0.3 C 1.6 km/h
174 19-01-2019 14:25:00 -0.2 C 4.59 g/m*3 -0.2 C 0 km/h
175 19-01-2019 14:30:00 -0.2 C 4.54 g/m*3 -0.2 C 3.2 km/h
Sensor: Nr:Datum:Temp:Abs-Feuchte:Windchill:Wind:
Aussen-T/F 176 19-01-2019 14:35:00 -0.1 C 4.57 g/m*3 -0.1 C 1.6 km/h
177 19-01-2019 14:40:00 0.1 C 4.63 g/m*3 0.1 C 3.2 km/h
178 19-01-2019 14:45:00 0.1 C 4.63 g/m*3 0.1 C 0 km/h
179 19-01-2019 14:50:00 0.2 C 4.67 g/m*3 0.2 C 0 km/h
180 19-01-2019 14:55:00 0.2 C 4.67 g/m*3 0.2 C 0 km/h
181 19-01-2019 15:00:00 0.2 C 4.67 g/m*3 0.2 C 0 km/h
182 19-01-2019 15:05:00 0.1 C 4.63 g/m*3 0.1 C 0 km/h
183 19-01-2019 15:10:00 0.1 C 4.59 g/m*3 0.1 C 0 km/h
184 19-01-2019 15:15:00 0.1 C 4.59 g/m*3 0.1 C 3.2 km/h
185 19-01-2019 15:20:00 0.1 C 4.59 g/m*3 0.1 C 3.2 km/h
186 19-01-2019 15:25:00 0.1 C 4.59 g/m*3 0.1 C 3.2 km/h
187 19-01-2019 15:30:00 0.1 C 4.59 g/m*3 0.1 C 4.8 km/h
188 19-01-2019 15:35:00 0.1 C 4.59 g/m*3 0.1 C 0 km/h
189 19-01-2019 15:40:00 0 C 4.55 g/m*3 0 C 0 km/h
190 19-01-2019 15:45:00 0 C 4.55 g/m*3 0 C 3.2 km/h
191 19-01-2019 15:50:00 0 C 4.55 g/m*3 0 C 3.2 km/h
192 19-01-2019 15:55:00 0.1 C 4.54 g/m*3 0.1 C 3.2 km/h
193 19-01-2019 16:00:00 0.1 C 4.54 g/m*3 0.1 C 3.2 km/h
194 19-01-2019 16:05:00 0.1 C 4.54 g/m*3 0.1 C 3.2 km/h
195 19-01-2019 16:10:00 0.1 C 4.54 g/m*3 0.1 C 3.2 km/h
196 19-01-2019 16:15:00 0.1 C 4.54 g/m*3 0.1 C 3.2 km/h
197 19-01-2019 16:20:00 0.1 C 4.54 g/m*3 0.1 C 3.2 km/h
198 19-01-2019 16:25:00 0.1 C 4.54 g/m*3 0.1 C 3.2 km/h
199 19-01-2019 16:30:00 -0.1 C 4.43 g/m*3 -0.1 C 3.2 km/h
200 19-01-2019 16:35:00 -0.1 C 4.43 g/m*3 -0.1 C 3.2 km/h
Sensor: Nr:Datum:Temp:Abs-Feuchte:Windchill:Wind:
Aussen-T/F 201 19-01-2019 16:40:00 -0.2 C 4.4 g/m*3 -0.2 C 3.2 km/h
202 19-01-2019 16:45:00 -0.3 C 4.32 g/m*3 -0.3 C 4.8 km/h
203 19-01-2019 16:50:00 -0.4 C 4.29 g/m*3 -0.4 C 4.8 km/h
204 19-01-2019 16:55:00 -0.5 C 4.21 g/m*3 -0.5 C 4.8 km/h
205 19-01-2019 17:00:00 -0.6 C 4.18 g/m*3 -0.6 C 4.8 km/h
206 19-01-2019 17:05:00 -0.7 C 4.15 g/m*3 -0.7 C 4.8 km/h
207 19-01-2019 17:10:00 -0.8 C 4.13 g/m*3 -0.8 C 4.8 km/h
208 19-01-2019 17:15:00 -0.9 C 4.1 g/m*3 -0.9 C 4.8 km/h
209 19-01-2019 17:20:00 -1 C 4.02 g/m*3 -1 C 4.8 km/h
210 19-01-2019 17:25:00 -1.1 C 4 g/m*3 -1.1 C 4.8 km/h
211 19-01-2019 17:30:00 -1.2 C 3.97 g/m*3 -1.2 C 4.8 km/h
212 19-01-2019 17:35:00 -1.2 C 3.97 g/m*3 -1.2 C 4.8 km/h
213 19-01-2019 17:40:00 -1.3 C 3.94 g/m*3 -1.3 C 4.8 km/h
214 19-01-2019 17:45:00 -1.3 C 3.94 g/m*3 -3.68 C 6.4 km/h
215 19-01-2019 17:50:00 -1.3 C 3.94 g/m*3 -3.68 C 6.4 km/h
216 19-01-2019 17:55:00 -1.4 C 3.91 g/m*3 -1.4 C 4.8 km/h
217 19-01-2019 18:00:00 -1.4 C 3.91 g/m*3 -1.4 C 4.8 km/h
218 19-01-2019 18:05:00 -1.5 C 3.89 g/m*3 -1.5 C 4.8 km/h
219 19-01-2019 18:10:00 -1.6 C 3.86 g/m*3 -1.6 C 4.8 km/h
220 19-01-2019 18:15:00 -1.6 C 3.86 g/m*3 -1.6 C 4.8 km/h
221 19-01-2019 18:20:00 -1.6 C 3.86 g/m*3 -1.6 C 3.2 km/h
222 19-01-2019 18:25:00 -1.7 C 3.83 g/m*3 -1.7 C 4.8 km/h
223 19-01-2019 18:30:00 -1.7 C 3.83 g/m*3 -1.7 C 3.2 km/h
224 19-01-2019 18:35:00 -1.8 C 3.8 g/m*3 -1.8 C 0 km/h
225 19-01-2019 18:40:00 -1.9 C 3.78 g/m*3 -1.9 C 3.2 km/h
Sensor: Nr:Datum:Temp:Abs-Feuchte:Windchill:Wind:
Aussen-T/F 226 19-01-2019 18:45:00 -2 C 3.75 g/m*3 -2 C 3.2 km/h
227 19-01-2019 18:50:00 -2.1 C 3.73 g/m*3 -2.1 C 0 km/h
228 19-01-2019 18:55:00 -2.1 C 3.77 g/m*3 -2.1 C 1.6 km/h
229 19-01-2019 19:00:00 -2.2 C 3.74 g/m*3 -2.2 C 3.2 km/h
230 19-01-2019 19:05:00 -2.2 C 3.7 g/m*3 -2.2 C 3.2 km/h
231 19-01-2019 19:10:00 -2.3 C 3.67 g/m*3 -2.3 C 3.2 km/h
232 19-01-2019 19:15:00 -2.3 C 3.67 g/m*3 -2.3 C 3.2 km/h
233 19-01-2019 19:20:00 -2.4 C 3.65 g/m*3 -2.4 C 3.2 km/h
234 19-01-2019 19:25:00 -2.4 C 3.65 g/m*3 -2.4 C 3.2 km/h
235 19-01-2019 19:30:00 -2.5 C 3.62 g/m*3 -2.5 C 1.6 km/h
236 19-01-2019 19:35:00 -2.6 C 3.6 g/m*3 -2.6 C 3.2 km/h
237 19-01-2019 19:40:00 -2.6 C 3.6 g/m*3 -2.6 C 3.2 km/h
238 19-01-2019 19:45:00 -2.6 C 3.6 g/m*3 -2.6 C 3.2 km/h
239 19-01-2019 19:50:00 -2.6 C 3.6 g/m*3 -2.6 C 3.2 km/h
240 19-01-2019 19:55:00 -2.6 C 3.6 g/m*3 -2.6 C 3.2 km/h
241 19-01-2019 20:00:00 -2.6 C 3.6 g/m*3 -2.6 C 3.2 km/h
242 19-01-2019 20:05:00 -2.6 C 3.64 g/m*3 -2.6 C 3.2 km/h
243 19-01-2019 20:10:00 -2.6 C 3.64 g/m*3 -2.6 C 1.6 km/h
244 19-01-2019 20:15:00 -2.7 C 3.61 g/m*3 -2.7 C 1.6 km/h
245 19-01-2019 20:20:00 -2.7 C 3.61 g/m*3 -2.7 C 0 km/h
246 19-01-2019 20:25:00 -2.7 C 3.61 g/m*3 -2.7 C 3.2 km/h
247 19-01-2019 20:30:00 -2.7 C 3.61 g/m*3 -2.7 C 3.2 km/h
248 19-01-2019 20:35:00 -2.7 C 3.61 g/m*3 -2.7 C 3.2 km/h
249 19-01-2019 20:40:00 -2.7 C 3.61 g/m*3 -2.7 C 3.2 km/h
250 19-01-2019 20:45:00 -2.7 C 3.61 g/m*3 -2.7 C 1.6 km/h
Sensor: Nr:Datum:Temp:Abs-Feuchte:Windchill:Wind:
Aussen-T/F 251 19-01-2019 20:50:00 -2.8 C 3.59 g/m*3 -2.8 C 0 km/h
252 19-01-2019 20:55:00 -2.8 C 3.59 g/m*3 -2.8 C 0 km/h
253 19-01-2019 21:00:00 -2.8 C 3.59 g/m*3 -2.8 C 0 km/h
254 19-01-2019 21:05:00 -2.8 C 3.59 g/m*3 -2.8 C 0 km/h
255 19-01-2019 21:10:00 -2.8 C 3.59 g/m*3 -2.8 C 0 km/h
256 19-01-2019 21:15:00 -2.7 C 3.61 g/m*3 -2.7 C 3.2 km/h
257 19-01-2019 21:20:00 -2.7 C 3.61 g/m*3 -2.7 C 1.6 km/h
258 19-01-2019 21:25:00 -2.7 C 3.61 g/m*3 -2.7 C 0 km/h
259 19-01-2019 21:30:00 -2.8 C 3.55 g/m*3 -2.8 C 0 km/h
260 19-01-2019 21:35:00 -2.8 C 3.55 g/m*3 -2.8 C 0 km/h
261 19-01-2019 21:40:00 -2.9 C 3.56 g/m*3 -2.9 C 0 km/h
262 19-01-2019 21:45:00 -3 C 3.54 g/m*3 -3 C 0 km/h
263 19-01-2019 21:50:00 -3.1 C 3.51 g/m*3 -3.1 C 0 km/h
264 19-01-2019 21:55:00 -3.2 C 3.49 g/m*3 -3.2 C 0 km/h
265 19-01-2019 22:00:00 -3.3 C 3.46 g/m*3 -3.3 C 1.6 km/h
266 19-01-2019 22:05:00 -3.3 C 3.46 g/m*3 -3.3 C 0 km/h
267 19-01-2019 22:10:00 -3.4 C 3.44 g/m*3 -3.4 C 0 km/h
268 19-01-2019 22:15:00 -3.6 C 3.39 g/m*3 -3.6 C 0 km/h
269 19-01-2019 22:20:00 -3.7 C 3.36 g/m*3 -3.7 C 0 km/h
270 19-01-2019 22:25:00 -3.8 C 3.34 g/m*3 -3.8 C 0 km/h
271 19-01-2019 22:30:00 -3.8 C 3.34 g/m*3 -3.8 C 0 km/h
272 19-01-2019 22:35:00 -3.9 C 3.32 g/m*3 -3.9 C 0 km/h
273 19-01-2019 22:40:00 -4 C 3.33 g/m*3 -4 C 0 km/h
274 19-01-2019 22:45:00 -4 C 3.33 g/m*3 -4 C 0 km/h
275 19-01-2019 22:50:00 -4.1 C 3.31 g/m*3 -4.1 C 0 km/h
Sensor: Nr:Datum:Temp:Abs-Feuchte:Windchill:Wind:
Aussen-T/F 276 19-01-2019 22:55:00 -4.1 C 3.31 g/m*3 -4.1 C 0 km/h
277 19-01-2019 23:00:00 -4.1 C 3.31 g/m*3 -4.1 C 0 km/h
278 19-01-2019 23:05:00 -4.2 C 3.28 g/m*3 -4.2 C 0 km/h
279 19-01-2019 23:10:00 -4.2 C 3.28 g/m*3 -4.2 C 0 km/h
280 19-01-2019 23:15:00 -4.3 C 3.26 g/m*3 -4.3 C 0 km/h
281 19-01-2019 23:20:00 -4.3 C 3.29 g/m*3 -4.3 C 0 km/h
282 19-01-2019 23:25:00 -4.3 C 3.29 g/m*3 -4.3 C 0 km/h
283 19-01-2019 23:30:00 -4.3 C 3.29 g/m*3 -4.3 C 0 km/h
284 19-01-2019 23:35:00 -4.3 C 3.29 g/m*3 -4.3 C 0 km/h
285 19-01-2019 23:40:00 -4.3 C 3.29 g/m*3 -4.3 C 0 km/h
286 19-01-2019 23:45:00 -4.3 C 3.29 g/m*3 -4.3 C 0 km/h
287 19-01-2019 23:50:00 -4.5 C 3.21 g/m*3 -4.5 C 0 km/h
288 19-01-2019 23:55:00 -4.5 C 3.25 g/m*3 -4.5 C 0 km/h
289 20-01-2019 00:00:00 -4.6 C 3.22 g/m*3 -4.6 C 0 km/h
290 20-01-2019 00:05:00 -4.6 C 3.22 g/m*3 -4.6 C 0 km/h
291 20-01-2019 00:10:00 -4.7 C 3.2 g/m*3 -4.7 C 0 km/h
292 20-01-2019 00:15:00 -4.7 C 3.2 g/m*3 -4.7 C 0 km/h
293 20-01-2019 00:20:00 -4.7 C 3.2 g/m*3 -4.7 C 0 km/h
294 20-01-2019 00:25:00 -4.8 C 3.18 g/m*3 -4.8 C 0 km/h
295 20-01-2019 00:30:00 -4.8 C 3.18 g/m*3 -4.8 C 0 km/h
296 20-01-2019 00:35:00 -4.7 C 3.24 g/m*3 -4.7 C 0 km/h
297 20-01-2019 00:40:00 -4.7 C 3.24 g/m*3 -4.7 C 0 km/h
298 20-01-2019 00:45:00 -4.8 C 3.21 g/m*3 -4.8 C 0 km/h
299 20-01-2019 00:50:00 -4.8 C 3.21 g/m*3 -4.8 C 0 km/h
300 20-01-2019 00:55:00 -4.9 C 3.16 g/m*3 -4.9 C 0 km/h
Sensor: Nr:Datum:Temp:Abs-Feuchte:Windchill:Wind:
Aussen-T/F 301 20-01-2019 01:00:00 -5.1 C 3.11 g/m*3 -5.1 C 0 km/h
302 20-01-2019 01:05:00 -5.1 C 3.11 g/m*3 -5.1 C 0 km/h
303 20-01-2019 01:10:00 -5.2 C 3.12 g/m*3 -5.2 C 0 km/h
304 20-01-2019 01:15:00 -5.2 C 3.12 g/m*3 -5.2 C 0 km/h
305 20-01-2019 01:20:00 -5.3 C 3.1 g/m*3 -5.3 C 0 km/h
306 20-01-2019 01:25:00 -5.3 C 3.1 g/m*3 -5.3 C 0 km/h
307 20-01-2019 01:30:00 -5.4 C 3.08 g/m*3 -5.4 C 0 km/h
308 20-01-2019 01:35:00 -5.4 C 3.08 g/m*3 -5.4 C 0 km/h
309 20-01-2019 01:40:00 -5.4 C 3.08 g/m*3 -5.4 C 0 km/h
310 20-01-2019 01:45:00 -5.3 C 3.1 g/m*3 -5.3 C 0 km/h
311 20-01-2019 01:50:00 -5.4 C 3.08 g/m*3 -5.4 C 0 km/h
312 20-01-2019 01:55:00 -5.4 C 3.08 g/m*3 -5.4 C 0 km/h
313 20-01-2019 02:00:00 -5.4 C 3.08 g/m*3 -5.4 C 0 km/h
314 20-01-2019 02:05:00 -5.5 C 3.05 g/m*3 -5.5 C 0 km/h
315 20-01-2019 02:10:00 -5.6 C 3.03 g/m*3 -5.6 C 0 km/h
316 20-01-2019 02:15:00 -5.7 C 3.01 g/m*3 -5.7 C 0 km/h
317 20-01-2019 02:20:00 -5.7 C 3.01 g/m*3 -5.7 C 0 km/h
318 20-01-2019 02:25:00 -5.7 C 3.01 g/m*3 -5.7 C 0 km/h
319 20-01-2019 02:30:00 -5.7 C 3.01 g/m*3 -5.7 C 0 km/h
320 20-01-2019 02:35:00 -5.6 C 3.03 g/m*3 -5.6 C 0 km/h
321 20-01-2019 02:40:00 -5.6 C 3.03 g/m*3 -5.6 C 0 km/h
322 20-01-2019 02:45:00 -5.7 C 3.01 g/m*3 -5.7 C 0 km/h
323 20-01-2019 02:50:00 -5.7 C 3.01 g/m*3 -5.7 C 0 km/h
324 20-01-2019 02:55:00 -5.7 C 3.01 g/m*3 -5.7 C 0 km/h
325 20-01-2019 03:00:00 -5.7 C 3.01 g/m*3 -5.7 C 0 km/h
Sensor: Nr:Datum:Temp:Abs-Feuchte:Windchill:Wind:
Aussen-T/F 326 20-01-2019 03:05:00 -5.7 C 3.01 g/m*3 -5.7 C 0 km/h
327 20-01-2019 03:10:00 -5.7 C 3.01 g/m*3 -5.7 C 0 km/h
328 20-01-2019 03:15:00 -5.7 C 3.01 g/m*3 -5.7 C 0 km/h
329 20-01-2019 03:20:00 -5.8 C 2.99 g/m*3 -5.8 C 0 km/h
330 20-01-2019 03:25:00 -5.8 C 2.99 g/m*3 -5.8 C 0 km/h
331 20-01-2019 03:30:00 -5.8 C 3.02 g/m*3 -5.8 C 0 km/h
332 20-01-2019 03:35:00 -5.8 C 3.02 g/m*3 -5.8 C 0 km/h
333 20-01-2019 03:40:00 -5.9 C 3 g/m*3 -5.9 C 0 km/h
334 20-01-2019 03:45:00 -5.9 C 2.97 g/m*3 -5.9 C 0 km/h
335 20-01-2019 03:50:00 -6 C 2.95 g/m*3 -6 C 0 km/h
336 20-01-2019 03:55:00 -6.1 C 2.92 g/m*3 -6.1 C 0 km/h
337 20-01-2019 04:00:00 -6.2 C 2.9 g/m*3 -6.2 C 0 km/h
338 20-01-2019 04:05:00 -6.2 C 2.9 g/m*3 -6.2 C 0 km/h
339 20-01-2019 04:10:00 -6.2 C 2.9 g/m*3 -6.2 C 0 km/h
340 20-01-2019 04:15:00 -6.2 C 2.9 g/m*3 -6.2 C 0 km/h
341 20-01-2019 04:20:00 -6.2 C 2.9 g/m*3 -6.2 C 0 km/h
342 20-01-2019 04:25:00 -6.2 C 2.9 g/m*3 -6.2 C 0 km/h
343 20-01-2019 04:30:00 -6.2 C 2.9 g/m*3 -6.2 C 0 km/h
344 20-01-2019 04:35:00 -6.2 C 2.9 g/m*3 -6.2 C 0 km/h
345 20-01-2019 04:40:00 -6.3 C 2.88 g/m*3 -6.3 C 0 km/h
346 20-01-2019 04:45:00 -6.3 C 2.88 g/m*3 -6.3 C 0 km/h
347 20-01-2019 04:50:00 -6.3 C 2.88 g/m*3 -6.3 C 0 km/h
348 20-01-2019 04:55:00 -6.4 C 2.86 g/m*3 -6.4 C 0 km/h
349 20-01-2019 05:00:00 -6.4 C 2.86 g/m*3 -6.4 C 0 km/h
350 20-01-2019 05:05:00 -6.6 C 2.82 g/m*3 -6.6 C 0 km/h
Sensor: Nr:Datum:Temp:Abs-Feuchte:Windchill:Wind:
Aussen-T/F 351 20-01-2019 05:10:00 -6.6 C 2.82 g/m*3 -6.6 C 0 km/h
352 20-01-2019 05:15:00 -6.6 C 2.82 g/m*3 -6.6 C 0 km/h
353 20-01-2019 05:20:00 -6.6 C 2.82 g/m*3 -6.6 C 0 km/h
354 20-01-2019 05:25:00 -6.6 C 2.82 g/m*3 -6.6 C 0 km/h
355 20-01-2019 05:30:00 -6.6 C 2.82 g/m*3 -6.6 C 0 km/h
356 20-01-2019 05:35:00 -6.7 C 2.8 g/m*3 -6.7 C 0 km/h
357 20-01-2019 05:40:00 -6.7 C 2.8 g/m*3 -6.7 C 0 km/h
358 20-01-2019 05:45:00 -6.7 C 2.83 g/m*3 -6.7 C 0 km/h
359 20-01-2019 05:50:00 -6.7 C 2.83 g/m*3 -6.7 C 0 km/h
360 20-01-2019 05:55:00 -6.7 C 2.83 g/m*3 -6.7 C 0 km/h
361 20-01-2019 06:00:00 -6.7 C 2.83 g/m*3 -6.7 C 0 km/h
362 20-01-2019 06:05:00 -6.7 C 2.8 g/m*3 -6.7 C 0 km/h
363 20-01-2019 06:10:00 -6.7 C 2.8 g/m*3 -6.7 C 0 km/h
364 20-01-2019 06:15:00 -6.7 C 2.8 g/m*3 -6.7 C 0 km/h
365 20-01-2019 06:20:00 -6.8 C 2.81 g/m*3 -6.8 C 0 km/h
366 20-01-2019 06:25:00 -6.8 C 2.78 g/m*3 -6.8 C 0 km/h
367 20-01-2019 06:30:00 -6.9 C 2.76 g/m*3 -6.9 C 0 km/h
368 20-01-2019 06:35:00 -6.9 C 2.76 g/m*3 -6.9 C 0 km/h
369 20-01-2019 06:40:00 -6.9 C 2.76 g/m*3 -6.9 C 0 km/h
370 20-01-2019 06:45:00 -6.9 C 2.79 g/m*3 -6.9 C 0 km/h
371 20-01-2019 06:50:00 -6.8 C 2.81 g/m*3 -6.8 C 0 km/h
372 20-01-2019 06:55:00 -6.8 C 2.81 g/m*3 -6.8 C 0 km/h
373 20-01-2019 07:00:00 -6.8 C 2.81 g/m*3 -6.8 C 0 km/h
374 20-01-2019 07:05:00 -6.9 C 2.76 g/m*3 -6.9 C 0 km/h
375 20-01-2019 07:10:00 -7 C 2.74 g/m*3 -7 C 0 km/h
Sensor: Nr:Datum:Temp:Abs-Feuchte:Windchill:Wind:
Aussen-T/F 376 20-01-2019 07:15:00 -7.1 C 2.72 g/m*3 -7.1 C 0 km/h
377 20-01-2019 07:20:00 -7.1 C 2.72 g/m*3 -7.1 C 0 km/h
378 20-01-2019 07:25:00 -7.1 C 2.72 g/m*3 -7.1 C 0 km/h
379 20-01-2019 07:30:00 -7.2 C 2.7 g/m*3 -7.2 C 0 km/h
380 20-01-2019 07:35:00 -7.2 C 2.7 g/m*3 -7.2 C 0 km/h
381 20-01-2019 07:40:00 -7.2 C 2.7 g/m*3 -7.2 C 0 km/h
382 20-01-2019 07:45:00 -7 C 2.77 g/m*3 -7 C 0 km/h
383 20-01-2019 07:50:00 -6.9 C 2.79 g/m*3 -6.9 C 0 km/h
384 20-01-2019 07:55:00 -7.1 C 2.72 g/m*3 -7.1 C 0 km/h
385 20-01-2019 08:00:00 -7.2 C 2.7 g/m*3 -7.2 C 0 km/h
386 20-01-2019 08:05:00 -7.2 C 2.7 g/m*3 -7.2 C 0 km/h
387 20-01-2019 08:10:00 -7.2 C 2.7 g/m*3 -7.2 C 0 km/h
388 20-01-2019 08:15:00 -7.3 C 2.68 g/m*3 -7.3 C 0 km/h
389 20-01-2019 08:20:00 -7.3 C 2.68 g/m*3 -7.3 C 0 km/h
390 20-01-2019 08:25:00 -7.4 C 2.66 g/m*3 -7.4 C 0 km/h
391 20-01-2019 08:30:00 -7.4 C 2.66 g/m*3 -7.4 C 0 km/h
392 20-01-2019 08:35:00 -7.4 C 2.66 g/m*3 -7.4 C 0 km/h
393 20-01-2019 08:40:00 -7.4 C 2.66 g/m*3 -7.4 C 0 km/h
394 20-01-2019 08:45:00 -7.4 C 2.66 g/m*3 -7.4 C 0 km/h
395 20-01-2019 08:50:00 -7.4 C 2.66 g/m*3 -7.4 C 0 km/h
396 20-01-2019 08:55:00 -7.4 C 2.66 g/m*3 -7.4 C 0 km/h
397 20-01-2019 09:00:00 -7.3 C 2.68 g/m*3 -7.3 C 0 km/h
398 20-01-2019 09:05:00 -7.3 C 2.71 g/m*3 -7.3 C 0 km/h
399 20-01-2019 09:10:00 -7.3 C 2.71 g/m*3 -7.3 C 0 km/h
400 20-01-2019 09:15:00 -7.2 C 2.73 g/m*3 -7.2 C 0 km/h
Sensor: Nr:Datum:Temp:Abs-Feuchte:Windchill:Wind:
Aussen-T/F 401 20-01-2019 09:20:00 -7.2 C 2.73 g/m*3 -7.2 C 0 km/h
402 20-01-2019 09:25:00 -7.2 C 2.73 g/m*3 -7.2 C 0 km/h
403 20-01-2019 09:30:00 -7.1 C 2.75 g/m*3 -7.1 C 0 km/h
404 20-01-2019 09:35:00 -6.9 C 2.79 g/m*3 -6.9 C 0 km/h
405 20-01-2019 09:40:00 -6.9 C 2.79 g/m*3 -6.9 C 0 km/h
406 20-01-2019 09:45:00 -6.8 C 2.81 g/m*3 -6.8 C 0 km/h
407 20-01-2019 09:50:00 -6.7 C 2.83 g/m*3 -6.7 C 0 km/h
408 20-01-2019 09:55:00 -6.6 C 2.85 g/m*3 -6.6 C 0 km/h
409 20-01-2019 10:00:00 -6.6 C 2.85 g/m*3 -6.6 C 0 km/h
410 20-01-2019 10:05:00 -6.5 C 2.87 g/m*3 -6.5 C 0 km/h
411 20-01-2019 10:10:00 -6.4 C 2.89 g/m*3 -6.4 C 0 km/h
412 20-01-2019 10:15:00 -6.4 C 2.89 g/m*3 -6.4 C 0 km/h
413 20-01-2019 10:20:00 -6.4 C 2.89 g/m*3 -6.4 C 0 km/h
414 20-01-2019 10:25:00 -6.3 C 2.91 g/m*3 -6.3 C 0 km/h
415 20-01-2019 10:30:00 -6.3 C 2.91 g/m*3 -6.3 C 0 km/h
416 20-01-2019 10:35:00 -6.3 C 2.91 g/m*3 -6.3 C 0 km/h
417 20-01-2019 10:40:00 -6.2 C 2.93 g/m*3 -6.2 C 0 km/h
418 20-01-2019 10:45:00 -6.2 C 2.93 g/m*3 -6.2 C 0 km/h
419 20-01-2019 10:50:00 -6 C 2.98 g/m*3 -6 C 0 km/h
420 20-01-2019 10:55:00 -5.9 C 3 g/m*3 -5.9 C 0 km/h
421 20-01-2019 11:00:00 -5.8 C 3.02 g/m*3 -5.8 C 0 km/h
422 20-01-2019 11:05:00 -5.8 C 3.02 g/m*3 -5.8 C 0 km/h
423 20-01-2019 11:10:00 -5.7 C 3.07 g/m*3 -5.7 C 0 km/h
424 20-01-2019 11:15:00 -5.6 C 3.1 g/m*3 -5.6 C 0 km/h
425 20-01-2019 11:20:00 -5.5 C 3.09 g/m*3 -5.5 C 0 km/h
Sensor: Nr:Datum:Temp:Abs-Feuchte:Windchill:Wind:
Aussen-T/F 426 20-01-2019 11:25:00 -5.4 C 3.14 g/m*3 -5.4 C 0 km/h
427 20-01-2019 11:30:00 -5.3 C 3.17 g/m*3 -5.3 C 0 km/h
428 20-01-2019 11:35:00 -5.3 C 3.13 g/m*3 -5.3 C 0 km/h
429 20-01-2019 11:40:00 -5.2 C 3.19 g/m*3 -5.2 C 1.6 km/h
430 20-01-2019 11:45:00 -5.1 C 3.21 g/m*3 -5.1 C 1.6 km/h
431 20-01-2019 11:50:00 -4.9 C 3.26 g/m*3 -4.9 C 0 km/h
432 20-01-2019 11:55:00 -4.8 C 3.28 g/m*3 -4.8 C 0 km/h
433 20-01-2019 12:00:00 -4.7 C 3.31 g/m*3 -4.7 C 0 km/h
434 20-01-2019 12:05:00 -4.6 C 3.33 g/m*3 -4.6 C 0 km/h
435 20-01-2019 12:10:00 -4.5 C 3.32 g/m*3 -4.5 C 0 km/h
436 20-01-2019 12:15:00 -4.4 C 3.34 g/m*3 -4.4 C 0 km/h
437 20-01-2019 12:20:00 -4.3 C 3.4 g/m*3 -4.3 C 0 km/h
438 20-01-2019 12:25:00 -4.3 C 3.37 g/m*3 -4.3 C 0 km/h
439 20-01-2019 12:30:00 -4.2 C 3.43 g/m*3 -4.2 C 1.6 km/h
440 20-01-2019 12:35:00 -4.1 C 3.45 g/m*3 -4.1 C 0 km/h
441 20-01-2019 12:40:00 -4 C 3.44 g/m*3 -4 C 0 km/h
442 20-01-2019 12:45:00 -3.9 C 3.46 g/m*3 -3.9 C 0 km/h
443 20-01-2019 12:50:00 -3.8 C 3.49 g/m*3 -3.8 C 0 km/h
444 20-01-2019 12:55:00 -3.8 C 3.49 g/m*3 -3.8 C 0 km/h
445 20-01-2019 13:00:00 -3.7 C 3.51 g/m*3 -3.7 C 1.6 km/h
446 20-01-2019 13:05:00 -3.6 C 3.54 g/m*3 -3.6 C 1.6 km/h
447 20-01-2019 13:10:00 -3.5 C 3.56 g/m*3 -3.5 C 1.6 km/h
448 20-01-2019 13:15:00 -3.4 C 3.59 g/m*3 -3.4 C 1.6 km/h
449 20-01-2019 13:20:00 -3.4 C 3.59 g/m*3 -3.4 C 1.6 km/h
450 20-01-2019 13:25:00 -3.3 C 3.61 g/m*3 -3.3 C 3.2 km/h
Sensor: Nr:Datum:Temp:Abs-Feuchte:Windchill:Wind:
Aussen-T/F 451 20-01-2019 13:30:00 -3.2 C 3.64 g/m*3 -3.2 C 0 km/h
452 20-01-2019 13:35:00 -3.1 C 3.67 g/m*3 -3.1 C 0 km/h
453 20-01-2019 13:40:00 -3.1 C 3.67 g/m*3 -3.1 C 0 km/h
454 20-01-2019 13:45:00 -3 C 3.69 g/m*3 -3 C 0 km/h
455 20-01-2019 13:50:00 -2.9 C 3.72 g/m*3 -2.9 C 0 km/h
456 20-01-2019 13:55:00 -2.9 C 3.72 g/m*3 -2.9 C 0 km/h
457 20-01-2019 14:00:00 -2.8 C 3.75 g/m*3 -2.8 C 0 km/h
458 20-01-2019 14:05:00 -2.8 C 3.75 g/m*3 -2.8 C 0 km/h
459 20-01-2019 14:10:00 -2.7 C 3.73 g/m*3 -2.7 C 0 km/h
460 20-01-2019 14:15:00 -2.7 C 3.77 g/m*3 -2.7 C 0 km/h
461 20-01-2019 14:20:00 -2.6 C 3.76 g/m*3 -2.6 C 0 km/h
462 20-01-2019 14:25:00 -2.6 C 3.76 g/m*3 -2.6 C 0 km/h
463 20-01-2019 14:30:00 -2.6 C 3.76 g/m*3 -2.6 C 0 km/h
464 20-01-2019 14:35:00 -2.5 C 3.78 g/m*3 -2.5 C 0 km/h
465 20-01-2019 14:40:00 -2.4 C 3.81 g/m*3 -2.4 C 0 km/h
466 20-01-2019 14:45:00 -2.4 C 3.81 g/m*3 -2.4 C 0 km/h
467 20-01-2019 14:50:00 -2.3 C 3.84 g/m*3 -2.3 C 0 km/h
468 20-01-2019 14:55:00 -2.3 C 3.84 g/m*3 -2.3 C 0 km/h
469 20-01-2019 15:00:00 -2.3 C 3.84 g/m*3 -2.3 C 0 km/h
470 20-01-2019 15:05:00 -2.2 C 3.87 g/m*3 -2.2 C 0 km/h
471 20-01-2019 15:10:00 -2.2 C 3.87 g/m*3 -2.2 C 0 km/h
472 20-01-2019 15:15:00 -2.2 C 3.87 g/m*3 -2.2 C 0 km/h
473 20-01-2019 15:20:00 -2.1 C 3.89 g/m*3 -2.1 C 0 km/h
474 20-01-2019 15:25:00 -2.1 C 3.89 g/m*3 -2.1 C 0 km/h
475 20-01-2019 15:30:00 -2 C 3.92 g/m*3 -2 C 0 km/h
Sensor: Nr:Datum:Temp:Abs-Feuchte:Windchill:Wind:
Aussen-T/F 476 20-01-2019 15:35:00 -1.9 C 3.95 g/m*3 -1.9 C 0 km/h
477 20-01-2019 15:40:00 -1.9 C 3.95 g/m*3 -1.9 C 0 km/h
478 20-01-2019 15:45:00 -1.9 C 3.91 g/m*3 -1.9 C 0 km/h
479 20-01-2019 15:50:00 -1.9 C 3.91 g/m*3 -1.9 C 0 km/h
480 20-01-2019 15:55:00 -1.8 C 3.93 g/m*3 -1.8 C 0 km/h
481 20-01-2019 16:00:00 -1.8 C 3.93 g/m*3 -1.8 C 0 km/h
482 20-01-2019 16:05:00 -1.8 C 3.93 g/m*3 -1.8 C 0 km/h
483 20-01-2019 16:10:00 -1.9 C 3.91 g/m*3 -1.9 C 0 km/h
484 20-01-2019 16:15:00 -1.9 C 3.91 g/m*3 -1.9 C 0 km/h
485 20-01-2019 16:20:00 -1.9 C 3.91 g/m*3 -1.9 C 0 km/h
486 20-01-2019 16:25:00 -1.9 C 3.91 g/m*3 -1.9 C 0 km/h
487 20-01-2019 16:30:00 -1.9 C 3.91 g/m*3 -1.9 C 0 km/h
488 20-01-2019 16:35:00 -2 C 3.88 g/m*3 -2 C 0 km/h
489 20-01-2019 16:40:00 -2.1 C 3.85 g/m*3 -2.1 C 0 km/h
490 20-01-2019 16:45:00 -2.1 C 3.85 g/m*3 -2.1 C 0 km/h
491 20-01-2019 16:50:00 -2.2 C 3.78 g/m*3 -2.2 C 0 km/h
492 20-01-2019 16:55:00 -2.2 C 3.78 g/m*3 -2.2 C 0 km/h
493 20-01-2019 17:00:00 -2.3 C 3.76 g/m*3 -2.3 C 0 km/h
494 20-01-2019 17:05:00 -2.3 C 3.76 g/m*3 -2.3 C 0 km/h
495 20-01-2019 17:10:00 -2.3 C 3.76 g/m*3 -2.3 C 0 km/h
496 20-01-2019 17:15:00 -2.3 C 3.76 g/m*3 -2.3 C 0 km/h
497 20-01-2019 17:20:00 -2.4 C 3.73 g/m*3 -2.4 C 0 km/h
498 20-01-2019 17:25:00 -2.4 C 3.69 g/m*3 -2.4 C 0 km/h
499 20-01-2019 17:30:00 -2.6 C 3.68 g/m*3 -2.6 C 0 km/h
500 20-01-2019 17:35:00 -2.6 C 3.68 g/m*3 -2.6 C 0 km/h
Sensor: Nr:Datum:Temp:Abs-Feuchte:Windchill:Wind:
Aussen-T/F 501 20-01-2019 17:40:00 -2.6 C 3.68 g/m*3 -2.6 C 0 km/h
502 20-01-2019 17:45:00 -2.6 C 3.68 g/m*3 -2.6 C 0 km/h
503 20-01-2019 17:50:00 -2.7 C 3.65 g/m*3 -2.7 C 0 km/h
504 20-01-2019 17:55:00 -2.8 C 3.59 g/m*3 -2.8 C 0 km/h
505 20-01-2019 18:00:00 -2.9 C 3.56 g/m*3 -2.9 C 0 km/h
506 20-01-2019 18:05:00 -3.1 C 3.51 g/m*3 -3.1 C 0 km/h
507 20-01-2019 18:10:00 -3.2 C 3.49 g/m*3 -3.2 C 0 km/h
508 20-01-2019 18:15:00 -3.3 C 3.46 g/m*3 -3.3 C 0 km/h
509 20-01-2019 18:20:00 -3.2 C 3.52 g/m*3 -3.2 C 0 km/h
510 20-01-2019 18:25:00 -3.3 C 3.5 g/m*3 -3.3 C 0 km/h
511 20-01-2019 18:30:00 -3.3 C 3.5 g/m*3 -3.3 C 0 km/h
512 20-01-2019 18:35:00 -3.4 C 3.47 g/m*3 -3.4 C 0 km/h
513 20-01-2019 18:40:00 -3.4 C 3.47 g/m*3 -3.4 C 0 km/h
514 20-01-2019 18:45:00 -3.5 C 3.45 g/m*3 -3.5 C 0 km/h
515 20-01-2019 18:50:00 -3.6 C 3.43 g/m*3 -3.6 C 0 km/h
516 20-01-2019 18:55:00 -3.6 C 3.43 g/m*3 -3.6 C 0 km/h
517 20-01-2019 19:00:00 -3.6 C 3.46 g/m*3 -3.6 C 0 km/h
518 20-01-2019 19:05:00 -3.6 C 3.43 g/m*3 -3.6 C 0 km/h
519 20-01-2019 19:10:00 -3.7 C 3.44 g/m*3 -3.7 C 0 km/h
520 20-01-2019 19:15:00 -3.7 C 3.44 g/m*3 -3.7 C 0 km/h
521 20-01-2019 19:20:00 -3.7 C 3.44 g/m*3 -3.7 C 0 km/h
522 20-01-2019 19:25:00 -3.7 C 3.44 g/m*3 -3.7 C 0 km/h
523 20-01-2019 19:30:00 -3.7 C 3.44 g/m*3 -3.7 C 0 km/h
524 20-01-2019 19:35:00 -3.8 C 3.38 g/m*3 -3.8 C 0 km/h
525 20-01-2019 19:40:00 -3.9 C 3.35 g/m*3 -3.9 C 0 km/h
Sensor: Nr:Datum:Temp:Abs-Feuchte:Windchill:Wind:
Aussen-T/F 526 20-01-2019 19:45:00 -3.9 C 3.39 g/m*3 -3.9 C 0 km/h
527 20-01-2019 19:50:00 -4 C 3.37 g/m*3 -4 C 0 km/h
528 20-01-2019 19:55:00 -4 C 3.37 g/m*3 -4 C 0 km/h
529 20-01-2019 20:00:00 -4 C 3.37 g/m*3 -4 C 0 km/h
530 20-01-2019 20:05:00 -4.1 C 3.34 g/m*3 -4.1 C 0 km/h
531 20-01-2019 20:10:00 -4.2 C 3.28 g/m*3 -4.2 C 0 km/h
532 20-01-2019 20:15:00 -4.2 C 3.32 g/m*3 -4.2 C 0 km/h
533 20-01-2019 20:20:00 -4.2 C 3.32 g/m*3 -4.2 C 0 km/h
534 20-01-2019 20:25:00 -4.3 C 3.29 g/m*3 -4.3 C 0 km/h
535 20-01-2019 20:30:00 -4.4 C 3.27 g/m*3 -4.4 C 0 km/h
536 20-01-2019 20:35:00 -4.6 C 3.19 g/m*3 -4.6 C 0 km/h
537 20-01-2019 20:40:00 -4.7 C 3.2 g/m*3 -4.7 C 0 km/h
538 20-01-2019 20:45:00 -4.8 C 3.14 g/m*3 -4.8 C 0 km/h
539 20-01-2019 20:50:00 -4.9 C 3.16 g/m*3 -4.9 C 0 km/h
540 20-01-2019 20:55:00 -4.9 C 3.16 g/m*3 -4.9 C 0 km/h
541 20-01-2019 21:00:00 -4.9 C 3.16 g/m*3 -4.9 C 0 km/h
542 20-01-2019 21:05:00 -4.9 C 3.16 g/m*3 -4.9 C 0 km/h
543 20-01-2019 21:10:00 -4.9 C 3.19 g/m*3 -4.9 C 0 km/h
544 20-01-2019 21:15:00 -4.9 C 3.16 g/m*3 -4.9 C 0 km/h
545 20-01-2019 21:20:00 -5.2 C 3.09 g/m*3 -5.2 C 0 km/h
546 20-01-2019 21:25:00 -5.3 C 3.07 g/m*3 -5.3 C 0 km/h
547 20-01-2019 21:30:00 -5.3 C 3.07 g/m*3 -5.3 C 0 km/h
548 20-01-2019 21:35:00 -5.3 C 3.07 g/m*3 -5.3 C 0 km/h
549 20-01-2019 21:40:00 -5.3 C 3.07 g/m*3 -5.3 C 0 km/h
550 20-01-2019 21:45:00 -5.3 C 3.07 g/m*3 -5.3 C 0 km/h
Sensor: Nr:Datum:Temp:Abs-Feuchte:Windchill:Wind:
Aussen-T/F 551 20-01-2019 21:50:00 -5.4 C 3.08 g/m*3 -5.4 C 0 km/h
552 20-01-2019 21:55:00 -5.4 C 3.08 g/m*3 -5.4 C 0 km/h
553 20-01-2019 22:00:00 -5.3 C 3.1 g/m*3 -5.3 C 0 km/h
554 20-01-2019 22:05:00 -5.4 C 3.08 g/m*3 -5.4 C 0 km/h
555 20-01-2019 22:10:00 -5.5 C 3.05 g/m*3 -5.5 C 0 km/h
556 20-01-2019 22:15:00 -5.7 C 2.98 g/m*3 -5.7 C 0 km/h
557 20-01-2019 22:20:00 -5.7 C 2.98 g/m*3 -5.7 C 0 km/h
558 20-01-2019 22:25:00 -5.7 C 3.01 g/m*3 -5.7 C 0 km/h
559 20-01-2019 22:30:00 -5.7 C 3.01 g/m*3 -5.7 C 0 km/h
560 20-01-2019 22:35:00 -5.7 C 3.01 g/m*3 -5.7 C 0 km/h
561 20-01-2019 22:40:00 -5.8 C 2.99 g/m*3 -5.8 C 0 km/h
562 20-01-2019 22:45:00 -5.8 C 2.99 g/m*3 -5.8 C 0 km/h
563 20-01-2019 22:50:00 -5.9 C 2.97 g/m*3 -5.9 C 0 km/h
564 20-01-2019 22:55:00 -5.9 C 2.97 g/m*3 -5.9 C 0 km/h
565 20-01-2019 23:00:00 -6 C 2.95 g/m*3 -6 C 0 km/h
566 20-01-2019 23:05:00 -6.1 C 2.92 g/m*3 -6.1 C 0 km/h
567 20-01-2019 23:10:00 -6.1 C 2.92 g/m*3 -6.1 C 0 km/h
568 20-01-2019 23:15:00 -6 C 2.95 g/m*3 -6 C 0 km/h
569 20-01-2019 23:20:00 -6.1 C 2.92 g/m*3 -6.1 C 0 km/h
570 20-01-2019 23:25:00 -6.1 C 2.92 g/m*3 -6.1 C 0 km/h
571 20-01-2019 23:30:00 -6.2 C 2.9 g/m*3 -6.2 C 0 km/h
572 20-01-2019 23:35:00 -6.2 C 2.9 g/m*3 -6.2 C 0 km/h
573 20-01-2019 23:40:00 -6.3 C 2.88 g/m*3 -6.3 C 0 km/h
574 20-01-2019 23:45:00 -6.3 C 2.88 g/m*3 -6.3 C 0 km/h
575 20-01-2019 23:50:00 -6.3 C 2.88 g/m*3 -6.3 C 0 km/h
Sensor: Nr:Datum:Temp:Abs-Feuchte:Windchill:Wind:
Aussen-T/F 576 20-01-2019 23:55:00 -6.3 C 2.88 g/m*3 -6.3 C 0 km/h
577 21-01-2019 00:00:00 -6.4 C 2.86 g/m*3 -6.4 C 0 km/h
578 21-01-2019 00:05:00 -6.5 C 2.84 g/m*3 -6.5 C 0 km/h
579 21-01-2019 00:10:00 -6.5 C 2.84 g/m*3 -6.5 C 0 km/h
580 21-01-2019 00:15:00 -6.4 C 2.86 g/m*3 -6.4 C 0 km/h
581 21-01-2019 00:20:00 -6.4 C 2.89 g/m*3 -6.4 C 0 km/h
582 21-01-2019 00:25:00 -6.5 C 2.84 g/m*3 -6.5 C 0 km/h
583 21-01-2019 00:30:00 -6.6 C 2.82 g/m*3 -6.6 C 0 km/h
584 21-01-2019 00:35:00 -6.6 C 2.82 g/m*3 -6.6 C 0 km/h
585 21-01-2019 00:40:00 -6.4 C 2.89 g/m*3 -6.4 C 0 km/h
586 21-01-2019 00:45:00 -6.3 C 2.91 g/m*3 -6.3 C 0 km/h
587 21-01-2019 00:50:00 -6.4 C 2.89 g/m*3 -6.4 C 0 km/h
588 21-01-2019 00:55:00 -6.5 C 2.84 g/m*3 -6.5 C 0 km/h
589 21-01-2019 01:00:00 -6.5 C 2.84 g/m*3 -6.5 C 0 km/h
590 21-01-2019 01:05:00 -6.6 C 2.82 g/m*3 -6.6 C 0 km/h
591 21-01-2019 01:10:00 -6.6 C 2.82 g/m*3 -6.6 C 0 km/h
592 21-01-2019 01:15:00 -6.6 C 2.85 g/m*3 -6.6 C 0 km/h
593 21-01-2019 01:20:00 -6.6 C 2.85 g/m*3 -6.6 C 0 km/h
594 21-01-2019 01:25:00 -6.6 C 2.85 g/m*3 -6.6 C 0 km/h
595 21-01-2019 01:30:00 -6.4 C 2.89 g/m*3 -6.4 C 0 km/h
596 21-01-2019 01:35:00 -6.5 C 2.87 g/m*3 -6.5 C 0 km/h
597 21-01-2019 01:40:00 -6.6 C 2.85 g/m*3 -6.6 C 0 km/h
598 21-01-2019 01:45:00 -6.6 C 2.85 g/m*3 -6.6 C 0 km/h
599 21-01-2019 01:50:00 -6.6 C 2.85 g/m*3 -6.6 C 0 km/h
600 21-01-2019 01:55:00 -6.6 C 2.85 g/m*3 -6.6 C 0 km/h
Sensor: Nr:Datum:Temp:Abs-Feuchte:Windchill:Wind:
Aussen-T/F 601 21-01-2019 02:00:00 -6.7 C 2.8 g/m*3 -6.7 C 0 km/h
602 21-01-2019 02:05:00 -6.7 C 2.8 g/m*3 -6.7 C 0 km/h
603 21-01-2019 02:10:00 -6.7 C 2.83 g/m*3 -6.7 C 0 km/h
604 21-01-2019 02:15:00 -6.8 C 2.81 g/m*3 -6.8 C 0 km/h
605 21-01-2019 02:20:00 -6.8 C 2.81 g/m*3 -6.8 C 0 km/h
606 21-01-2019 02:25:00 -6.8 C 2.81 g/m*3 -6.8 C 0 km/h
607 21-01-2019 02:30:00 -6.9 C 2.76 g/m*3 -6.9 C 0 km/h
608 21-01-2019 02:35:00 -7 C 2.77 g/m*3 -7 C 0 km/h
609 21-01-2019 02:40:00 -7 C 2.74 g/m*3 -7 C 0 km/h
610 21-01-2019 02:45:00 -7.1 C 2.72 g/m*3 -7.1 C 0 km/h
611 21-01-2019 02:50:00 -7.2 C 2.7 g/m*3 -7.2 C 0 km/h
612 21-01-2019 02:55:00 -7.2 C 2.7 g/m*3 -7.2 C 0 km/h
613 21-01-2019 03:00:00 -7.2 C 2.73 g/m*3 -7.2 C 0 km/h
614 21-01-2019 03:05:00 -7.2 C 2.73 g/m*3 -7.2 C 0 km/h
615 21-01-2019 03:10:00 -7.3 C 2.68 g/m*3 -7.3 C 0 km/h
616 21-01-2019 03:15:00 -7.3 C 2.68 g/m*3 -7.3 C 0 km/h
617 21-01-2019 03:20:00 -7.4 C 2.66 g/m*3 -7.4 C 0 km/h
618 21-01-2019 03:25:00 -7.5 C 2.64 g/m*3 -7.5 C 0 km/h
619 21-01-2019 03:30:00 -7.4 C 2.66 g/m*3 -7.4 C 0 km/h
620 21-01-2019 03:35:00 -7.4 C 2.69 g/m*3 -7.4 C 0 km/h
621 21-01-2019 03:40:00 -7.3 C 2.71 g/m*3 -7.3 C 0 km/h
622 21-01-2019 03:45:00 -7.4 C 2.69 g/m*3 -7.4 C 0 km/h
623 21-01-2019 03:50:00 -7.4 C 2.69 g/m*3 -7.4 C 0 km/h
624 21-01-2019 03:55:00 -7.4 C 2.69 g/m*3 -7.4 C 0 km/h
625 21-01-2019 04:00:00 -7.4 C 2.69 g/m*3 -7.4 C 0 km/h
Sensor: Nr:Datum:Temp:Abs-Feuchte:Windchill:Wind:
Aussen-T/F 626 21-01-2019 04:05:00 -7.6 C 2.65 g/m*3 -7.6 C 0 km/h
627 21-01-2019 04:10:00 -7.6 C 2.65 g/m*3 -7.6 C 0 km/h
628 21-01-2019 04:15:00 -7.6 C 2.65 g/m*3 -7.6 C 0 km/h
629 21-01-2019 04:20:00 -7.6 C 2.65 g/m*3 -7.6 C 0 km/h
630 21-01-2019 04:25:00 -7.6 C 2.65 g/m*3 -7.6 C 0 km/h
631 21-01-2019 04:30:00 -7.6 C 2.65 g/m*3 -7.6 C 0 km/h
632 21-01-2019 04:35:00 -7.6 C 2.65 g/m*3 -7.6 C 0 km/h
633 21-01-2019 04:40:00 -7.7 C 2.6 g/m*3 -7.7 C 0 km/h
634 21-01-2019 04:45:00 -7.8 C 2.58 g/m*3 -7.8 C 0 km/h
635 21-01-2019 04:50:00 -7.8 C 2.58 g/m*3 -7.8 C 0 km/h
636 21-01-2019 04:55:00 -7.8 C 2.58 g/m*3 -7.8 C 0 km/h
637 21-01-2019 05:00:00 -7.8 C 2.61 g/m*3 -7.8 C 0 km/h
638 21-01-2019 05:05:00 -7.7 C 2.63 g/m*3 -7.7 C 0 km/h
639 21-01-2019 05:10:00 -7.7 C 2.63 g/m*3 -7.7 C 0 km/h
640 21-01-2019 05:15:00 -7.8 C 2.58 g/m*3 -7.8 C 0 km/h
641 21-01-2019 05:20:00 -7.8 C 2.58 g/m*3 -7.8 C 0 km/h
642 21-01-2019 05:25:00 -7.8 C 2.58 g/m*3 -7.8 C 0 km/h
643 21-01-2019 05:30:00 -7.9 C 2.56 g/m*3 -7.9 C 0 km/h
644 21-01-2019 05:35:00 -8 C 2.54 g/m*3 -8 C 0 km/h
645 21-01-2019 05:40:00 -8 C 2.54 g/m*3 -8 C 0 km/h
646 21-01-2019 05:45:00 -8.1 C 2.52 g/m*3 -8.1 C 0 km/h
647 21-01-2019 05:50:00 -8 C 2.54 g/m*3 -8 C 0 km/h
648 21-01-2019 05:55:00 -8.1 C 2.52 g/m*3 -8.1 C 0 km/h
649 21-01-2019 06:00:00 -8.1 C 2.52 g/m*3 -8.1 C 0 km/h
650 21-01-2019 06:05:00 -8.1 C 2.52 g/m*3 -8.1 C 0 km/h
Sensor: Nr:Datum:Temp:Abs-Feuchte:Windchill:Wind:
Aussen-T/F 651 21-01-2019 06:10:00 -8.1 C 2.52 g/m*3 -8.1 C 0 km/h
652 21-01-2019 06:15:00 -8.1 C 2.52 g/m*3 -8.1 C 0 km/h
653 21-01-2019 06:20:00 -8.1 C 2.55 g/m*3 -8.1 C 0 km/h
654 21-01-2019 06:25:00 -8.1 C 2.52 g/m*3 -8.1 C 0 km/h
655 21-01-2019 06:30:00 -8 C 2.54 g/m*3 -8 C 0 km/h
656 21-01-2019 06:35:00 -8 C 2.54 g/m*3 -8 C 0 km/h
657 21-01-2019 06:40:00 -8.1 C 2.52 g/m*3 -8.1 C 0 km/h
658 21-01-2019 06:45:00 -8.1 C 2.52 g/m*3 -8.1 C 0 km/h
659 21-01-2019 06:50:00 -8.1 C 2.52 g/m*3 -8.1 C 0 km/h
660 21-01-2019 06:55:00 -8.2 C 2.51 g/m*3 -8.2 C 0 km/h
661 21-01-2019 07:00:00 -8.2 C 2.51 g/m*3 -8.2 C 0 km/h
662 21-01-2019 07:05:00 -8.3 C 2.49 g/m*3 -8.3 C 0 km/h
663 21-01-2019 07:10:00 -8.3 C 2.49 g/m*3 -8.3 C 0 km/h
664 21-01-2019 07:15:00 -8.3 C 2.49 g/m*3 -8.3 C 0 km/h
665 21-01-2019 07:20:00 -8.3 C 2.49 g/m*3 -8.3 C 0 km/h
666 21-01-2019 07:25:00 -8.3 C 2.49 g/m*3 -8.3 C 0 km/h
667 21-01-2019 07:30:00 -8.3 C 2.49 g/m*3 -8.3 C 0 km/h
668 21-01-2019 07:35:00 -8.4 C 2.47 g/m*3 -8.4 C 0 km/h
669 21-01-2019 07:40:00 -8.4 C 2.47 g/m*3 -8.4 C 0 km/h
670 21-01-2019 07:45:00 -8.5 C 2.45 g/m*3 -8.5 C 0 km/h
671 21-01-2019 07:50:00 -8.5 C 2.45 g/m*3 -8.5 C 0 km/h
672 21-01-2019 07:55:00 -8.5 C 2.45 g/m*3 -8.5 C 0 km/h
673 21-01-2019 08:00:00 -8.6 C 2.43 g/m*3 -8.6 C 0 km/h
674 21-01-2019 08:05:00 -8.5 C 2.45 g/m*3 -8.5 C 0 km/h
675 21-01-2019 08:10:00 -8.5 C 2.45 g/m*3 -8.5 C 0 km/h
Sensor: Nr:Datum:Temp:Abs-Feuchte:Windchill:Wind:
Aussen-T/F 676 21-01-2019 08:15:00 -8.4 C 2.47 g/m*3 -8.4 C 0 km/h
677 21-01-2019 08:20:00 -8.4 C 2.47 g/m*3 -8.4 C 0 km/h
678 21-01-2019 08:25:00 -8.5 C 2.45 g/m*3 -8.5 C 0 km/h
679 21-01-2019 08:30:00 -8.6 C 2.43 g/m*3 -8.6 C 0 km/h
680 21-01-2019 08:35:00 -8.6 C 2.43 g/m*3 -8.6 C 0 km/h
681 21-01-2019 08:40:00 -8.6 C 2.43 g/m*3 -8.6 C 0 km/h
682 21-01-2019 08:45:00 -8.7 C 2.41 g/m*3 -8.7 C 0 km/h
683 21-01-2019 08:50:00 -8.6 C 2.43 g/m*3 -8.6 C 0 km/h
684 21-01-2019 08:55:00 -8.6 C 2.43 g/m*3 -8.6 C 0 km/h
685 21-01-2019 09:00:00 -8.6 C 2.43 g/m*3 -8.6 C 0 km/h
686 21-01-2019 09:05:00 -8.5 C 2.45 g/m*3 -8.5 C 0 km/h
687 21-01-2019 09:10:00 -8.4 C 2.47 g/m*3 -8.4 C 0 km/h
688 21-01-2019 09:15:00 -8.4 C 2.47 g/m*3 -8.4 C 0 km/h
689 21-01-2019 09:20:00 -8.3 C 2.49 g/m*3 -8.3 C 0 km/h
690 21-01-2019 09:25:00 -8.3 C 2.49 g/m*3 -8.3 C 0 km/h
691 21-01-2019 09:30:00 -8.2 C 2.51 g/m*3 -8.2 C 0 km/h
692 21-01-2019 09:35:00 -8.2 C 2.51 g/m*3 -8.2 C 0 km/h
693 21-01-2019 09:40:00 -8.1 C 2.55 g/m*3 -8.1 C 0 km/h
694 21-01-2019 09:45:00 -8 C 2.57 g/m*3 -8 C 0 km/h
695 21-01-2019 09:50:00 -7.9 C 2.59 g/m*3 -7.9 C 0 km/h
696 21-01-2019 09:55:00 -7.8 C 2.61 g/m*3 -7.8 C 0 km/h
697 21-01-2019 10:00:00 -7.8 C 2.61 g/m*3 -7.8 C 0 km/h
698 21-01-2019 10:05:00 -7.8 C 2.61 g/m*3 -7.8 C 0 km/h
699 21-01-2019 10:10:00 -7.7 C 2.63 g/m*3 -7.7 C 0 km/h
700 21-01-2019 10:15:00 -7.7 C 2.63 g/m*3 -7.7 C 0 km/h
Sensor: Nr:Datum:Temp:Abs-Feuchte:Windchill:Wind:
Aussen-T/F 701 21-01-2019 10:20:00 -7.7 C 2.63 g/m*3 -7.7 C 0 km/h
702 21-01-2019 10:25:00 -7.6 C 2.65 g/m*3 -7.6 C 0 km/h
703 21-01-2019 10:30:00 -7.6 C 2.65 g/m*3 -7.6 C 0 km/h
704 21-01-2019 10:35:00 -7.6 C 2.65 g/m*3 -7.6 C 0 km/h
705 21-01-2019 10:40:00 -7.4 C 2.69 g/m*3 -7.4 C 0 km/h
706 21-01-2019 10:45:00 -7.3 C 2.71 g/m*3 -7.3 C 0 km/h
707 21-01-2019 10:50:00 -7.2 C 2.73 g/m*3 -7.2 C 0 km/h
708 21-01-2019 10:55:00 -7 C 2.77 g/m*3 -7 C 0 km/h
709 21-01-2019 11:00:00 -6.7 C 2.86 g/m*3 -6.7 C 0 km/h
710 21-01-2019 11:05:00 -6.5 C 2.9 g/m*3 -6.5 C 0 km/h
711 21-01-2019 11:10:00 -6.2 C 2.97 g/m*3 -6.2 C 0 km/h
712 21-01-2019 11:15:00 -6 C 3.01 g/m*3 -6 C 0 km/h
713 21-01-2019 11:20:00 -5.8 C 3.05 g/m*3 -5.8 C 0 km/h
714 21-01-2019 11:25:00 -5.7 C 3.07 g/m*3 -5.7 C 1.6 km/h
715 21-01-2019 11:30:00 -5.5 C 3.12 g/m*3 -5.5 C 1.6 km/h
716 21-01-2019 11:35:00 -5.3 C 3.17 g/m*3 -5.3 C 3.2 km/h
717 21-01-2019 11:40:00 -5.3 C 3.17 g/m*3 -5.3 C 1.6 km/h
718 21-01-2019 11:45:00 -5.2 C 3.19 g/m*3 -5.2 C 3.2 km/h
719 21-01-2019 11:50:00 -5.2 C 3.19 g/m*3 -5.2 C 4.8 km/h
720 21-01-2019 11:55:00 -5.1 C 3.21 g/m*3 -5.1 C 4.8 km/h
721 21-01-2019 12:00:00 -5 C 3.23 g/m*3 -5 C 3.2 km/h
722 21-01-2019 12:05:00 -5 C 3.23 g/m*3 -5 C 4.8 km/h
723 21-01-2019 12:10:00 -4.9 C 3.26 g/m*3 -4.9 C 1.6 km/h
724 21-01-2019 12:15:00 -4.9 C 3.26 g/m*3 -4.9 C 3.2 km/h
725 21-01-2019 12:20:00 -4.9 C 3.26 g/m*3 -4.9 C 0 km/h
Sensor: Nr:Datum:Temp:Abs-Feuchte:Windchill:Wind:
Aussen-T/F 726 21-01-2019 12:25:00 -4.9 C 3.26 g/m*3 -4.9 C 0 km/h
727 21-01-2019 12:30:00 -4.8 C 3.28 g/m*3 -4.8 C 0 km/h
728 21-01-2019 12:35:00 -4.8 C 3.28 g/m*3 -4.8 C 0 km/h
729 21-01-2019 12:40:00 -4.8 C 3.28 g/m*3 -4.8 C 0 km/h
730 21-01-2019 12:45:00 -4.8 C 3.28 g/m*3 -4.8 C 0 km/h
731 21-01-2019 12:50:00 -4.8 C 3.25 g/m*3 -4.8 C 0 km/h
732 21-01-2019 12:55:00 -4.8 C 3.25 g/m*3 -4.8 C 0 km/h
733 21-01-2019 13:00:00 -4.8 C 3.25 g/m*3 -4.8 C 0 km/h
734 21-01-2019 13:05:00 -4.8 C 3.25 g/m*3 -4.8 C 1.6 km/h
735 21-01-2019 13:10:00 -4.7 C 3.31 g/m*3 -4.7 C 0 km/h
736 21-01-2019 13:15:00 -4.7 C 3.31 g/m*3 -4.7 C 0 km/h
737 21-01-2019 13:20:00 -4.6 C 3.33 g/m*3 -4.6 C 0 km/h
738 21-01-2019 13:25:00 -4.5 C 3.35 g/m*3 -4.5 C 0 km/h
739 21-01-2019 13:30:00 -4.4 C 3.38 g/m*3 -4.4 C 0 km/h
740 21-01-2019 13:35:00 -4.4 C 3.38 g/m*3 -4.4 C 0 km/h
741 21-01-2019 13:40:00 -4.3 C 3.4 g/m*3 -4.3 C 0 km/h
742 21-01-2019 13:45:00 -4.3 C 3.4 g/m*3 -4.3 C 0 km/h
743 21-01-2019 13:50:00 -4.2 C 3.43 g/m*3 -4.2 C 1.6 km/h
744 21-01-2019 13:55:00 -4.2 C 3.43 g/m*3 -4.2 C 0 km/h
745 21-01-2019 14:00:00 -4.2 C 3.43 g/m*3 -4.2 C 0 km/h
746 21-01-2019 14:05:00 -4.1 C 3.45 g/m*3 -4.1 C 3.2 km/h
747 21-01-2019 14:10:00 -4 C 3.48 g/m*3 -4 C 3.2 km/h
748 21-01-2019 14:15:00 -3.9 C 3.5 g/m*3 -3.9 C 1.6 km/h
749 21-01-2019 14:20:00 -3.8 C 3.53 g/m*3 -3.8 C 0 km/h
750 21-01-2019 14:25:00 -3.8 C 3.53 g/m*3 -3.8 C 0 km/h
Sensor: Nr:Datum:Temp:Abs-Feuchte:Windchill:Wind:
Aussen-T/F 751 21-01-2019 14:30:00 -3.7 C 3.55 g/m*3 -3.7 C 0 km/h
752 21-01-2019 14:35:00 -3.7 C 3.55 g/m*3 -3.7 C 0 km/h
753 21-01-2019 14:40:00 -3.6 C 3.58 g/m*3 -3.6 C 0 km/h
754 21-01-2019 14:45:00 -3.6 C 3.58 g/m*3 -3.6 C 0 km/h
755 21-01-2019 14:50:00 -3.5 C 3.6 g/m*3 -3.5 C 0 km/h
756 21-01-2019 14:55:00 -3.4 C 3.63 g/m*3 -3.4 C 0 km/h
757 21-01-2019 15:00:00 -3.4 C 3.63 g/m*3 -3.4 C 0 km/h
758 21-01-2019 15:05:00 -3.4 C 3.63 g/m*3 -3.4 C 0 km/h
759 21-01-2019 15:10:00 -3.4 C 3.63 g/m*3 -3.4 C 0 km/h
760 21-01-2019 15:15:00 -3.3 C 3.65 g/m*3 -3.3 C 0 km/h
761 21-01-2019 15:20:00 -3.3 C 3.65 g/m*3 -3.3 C 0 km/h
762 21-01-2019 15:25:00 -3.3 C 3.65 g/m*3 -3.3 C 0 km/h
763 21-01-2019 15:30:00 -3.2 C 3.68 g/m*3 -3.2 C 0 km/h
764 21-01-2019 15:35:00 -3.2 C 3.68 g/m*3 -3.2 C 0 km/h
765 21-01-2019 15:40:00 -3.2 C 3.68 g/m*3 -3.2 C 0 km/h
766 21-01-2019 15:45:00 -3.2 C 3.68 g/m*3 -3.2 C 0 km/h
767 21-01-2019 15:50:00 -3.2 C 3.68 g/m*3 -3.2 C 0 km/h
768 21-01-2019 15:55:00 -3.2 C 3.68 g/m*3 -3.2 C 0 km/h
769 21-01-2019 16:00:00 -3.2 C 3.68 g/m*3 -3.2 C 0 km/h
770 21-01-2019 16:05:00 -3.2 C 3.68 g/m*3 -3.2 C 0 km/h
771 21-01-2019 16:10:00 -3.2 C 3.68 g/m*3 -3.2 C 0 km/h
772 21-01-2019 16:15:00 -3.2 C 3.64 g/m*3 -3.2 C 0 km/h
773 21-01-2019 16:20:00 -3.2 C 3.64 g/m*3 -3.2 C 0 km/h
774 21-01-2019 16:25:00 -3.2 C 3.64 g/m*3 -3.2 C 0 km/h
775 21-01-2019 16:30:00 -3.2 C 3.68 g/m*3 -3.2 C 0 km/h
Sensor: Nr:Datum:Temp:Abs-Feuchte:Windchill:Wind:
Aussen-T/F 776 21-01-2019 16:35:00 -3.3 C 3.65 g/m*3 -3.3 C 0 km/h
777 21-01-2019 16:40:00 -3.3 C 3.61 g/m*3 -3.3 C 0 km/h
778 21-01-2019 16:45:00 -3.4 C 3.59 g/m*3 -3.4 C 0 km/h
779 21-01-2019 16:50:00 -3.4 C 3.59 g/m*3 -3.4 C 1.6 km/h
780 21-01-2019 16:55:00 -3.4 C 3.59 g/m*3 -3.4 C 3.2 km/h
781 21-01-2019 17:00:00 -3.5 C 3.56 g/m*3 -3.5 C 3.2 km/h
782 21-01-2019 17:05:00 -3.6 C 3.54 g/m*3 -3.6 C 3.2 km/h
783 21-01-2019 17:10:00 -3.7 C 3.51 g/m*3 -3.7 C 3.2 km/h
784 21-01-2019 17:15:00 -3.7 C 3.51 g/m*3 -3.7 C 1.6 km/h
785 21-01-2019 17:20:00 -3.8 C 3.49 g/m*3 -3.8 C 0 km/h
786 21-01-2019 17:25:00 -3.8 C 3.49 g/m*3 -3.8 C 0 km/h
787 21-01-2019 17:30:00 -3.9 C 3.46 g/m*3 -3.9 C 0 km/h
788 21-01-2019 17:35:00 -3.9 C 3.46 g/m*3 -3.9 C 0 km/h
789 21-01-2019 17:40:00 -3.9 C 3.46 g/m*3 -3.9 C 0 km/h
790 21-01-2019 17:45:00 -4 C 3.44 g/m*3 -4 C 0 km/h
791 21-01-2019 17:50:00 -4.1 C 3.41 g/m*3 -4.1 C 0 km/h
792 21-01-2019 17:55:00 -4.1 C 3.41 g/m*3 -4.1 C 0 km/h
793 21-01-2019 18:00:00 -4.2 C 3.39 g/m*3 -4.2 C 0 km/h
794 21-01-2019 18:05:00 -4.2 C 3.39 g/m*3 -4.2 C 0 km/h
795 21-01-2019 18:10:00 -4.3 C 3.37 g/m*3 -4.3 C 0 km/h
796 21-01-2019 18:15:00 -4.3 C 3.37 g/m*3 -4.3 C 0 km/h
797 21-01-2019 18:20:00 -4.4 C 3.34 g/m*3 -4.4 C 0 km/h
798 21-01-2019 18:25:00 -4.4 C 3.34 g/m*3 -4.4 C 0 km/h
799 21-01-2019 18:30:00 -4.5 C 3.32 g/m*3 -4.5 C 0 km/h
800 21-01-2019 18:35:00 -4.6 C 3.29 g/m*3 -4.6 C 0 km/h
Sensor: Nr:Datum:Temp:Abs-Feuchte:Windchill:Wind:
Aussen-T/F 801 21-01-2019 18:40:00 -4.6 C 3.29 g/m*3 -4.6 C 0 km/h
802 21-01-2019 18:45:00 -4.7 C 3.27 g/m*3 -4.7 C 0 km/h
803 21-01-2019 18:50:00 -4.8 C 3.21 g/m*3 -4.8 C 0 km/h
804 21-01-2019 18:55:00 -5 C 3.17 g/m*3 -5 C 0 km/h
805 21-01-2019 19:00:00 -5.2 C 3.12 g/m*3 -5.2 C 0 km/h
806 21-01-2019 19:05:00 -5.3 C 3.1 g/m*3 -5.3 C 0 km/h
807 21-01-2019 19:10:00 -5.4 C 3.08 g/m*3 -5.4 C 0 km/h
808 21-01-2019 19:15:00 -5.5 C 3.05 g/m*3 -5.5 C 0 km/h
809 21-01-2019 19:20:00 -5.4 C 3.11 g/m*3 -5.4 C 0 km/h
810 21-01-2019 19:25:00 -5.4 C 3.11 g/m*3 -5.4 C 0 km/h
811 21-01-2019 19:30:00 -5.3 C 3.13 g/m*3 -5.3 C 0 km/h
812 21-01-2019 19:35:00 -5.3 C 3.13 g/m*3 -5.3 C 0 km/h
813 21-01-2019 19:40:00 -5.4 C 3.11 g/m*3 -5.4 C 0 km/h
814 21-01-2019 19:45:00 -5.5 C 3.09 g/m*3 -5.5 C 0 km/h
815 21-01-2019 19:50:00 -5.6 C 3.03 g/m*3 -5.6 C 0 km/h
816 21-01-2019 19:55:00 -5.7 C 3.01 g/m*3 -5.7 C 0 km/h
817 21-01-2019 20:00:00 -5.7 C 3.04 g/m*3 -5.7 C 0 km/h
818 21-01-2019 20:05:00 -5.7 C 3.04 g/m*3 -5.7 C 0 km/h
819 21-01-2019 20:10:00 -5.8 C 2.99 g/m*3 -5.8 C 0 km/h
820 21-01-2019 20:15:00 -6 C 2.95 g/m*3 -6 C 0 km/h
821 21-01-2019 20:20:00 -6.1 C 2.92 g/m*3 -6.1 C 0 km/h
822 21-01-2019 20:25:00 -6.1 C 2.92 g/m*3 -6.1 C 0 km/h
823 21-01-2019 20:30:00 -6.2 C 2.9 g/m*3 -6.2 C 0 km/h
824 21-01-2019 20:35:00 -6.2 C 2.9 g/m*3 -6.2 C 0 km/h
825 21-01-2019 20:40:00 -6.2 C 2.9 g/m*3 -6.2 C 0 km/h
Sensor: Nr:Datum:Temp:Abs-Feuchte:Windchill:Wind:
Aussen-T/F 826 21-01-2019 20:45:00 -6.2 C 2.9 g/m*3 -6.2 C 0 km/h
827 21-01-2019 20:50:00 -6.2 C 2.9 g/m*3 -6.2 C 0 km/h
828 21-01-2019 20:55:00 -6.2 C 2.93 g/m*3 -6.2 C 0 km/h
829 21-01-2019 21:00:00 -6.2 C 2.93 g/m*3 -6.2 C 0 km/h
830 21-01-2019 21:05:00 -6.2 C 2.93 g/m*3 -6.2 C 0 km/h
831 21-01-2019 21:10:00 -6.3 C 2.91 g/m*3 -6.3 C 0 km/h
832 21-01-2019 21:15:00 -6.3 C 2.91 g/m*3 -6.3 C 0 km/h
833 21-01-2019 21:20:00 -6.3 C 2.91 g/m*3 -6.3 C 0 km/h
834 21-01-2019 21:25:00 -6.3 C 2.91 g/m*3 -6.3 C 0 km/h
835 21-01-2019 21:30:00 -6.4 C 2.89 g/m*3 -6.4 C 0 km/h
836 21-01-2019 21:35:00 -6.5 C 2.84 g/m*3 -6.5 C 0 km/h
837 21-01-2019 21:40:00 -6.6 C 2.82 g/m*3 -6.6 C 0 km/h
838 21-01-2019 21:45:00 -6.6 C 2.82 g/m*3 -6.6 C 0 km/h
839 21-01-2019 21:50:00 -6.6 C 2.85 g/m*3 -6.6 C 0 km/h
840 21-01-2019 21:55:00 -6.6 C 2.85 g/m*3 -6.6 C 0 km/h
841 21-01-2019 22:00:00 -6.6 C 2.85 g/m*3 -6.6 C 0 km/h
842 21-01-2019 22:05:00 -6.7 C 2.83 g/m*3 -6.7 C 0 km/h
843 21-01-2019 22:10:00 -6.7 C 2.83 g/m*3 -6.7 C 0 km/h
844 21-01-2019 22:15:00 -6.6 C 2.85 g/m*3 -6.6 C 0 km/h
845 21-01-2019 22:20:00 -6.6 C 2.85 g/m*3 -6.6 C 0 km/h
846 21-01-2019 22:25:00 -6.7 C 2.8 g/m*3 -6.7 C 0 km/h
847 21-01-2019 22:30:00 -6.8 C 2.81 g/m*3 -6.8 C 0 km/h
848 21-01-2019 22:35:00 -6.8 C 2.78 g/m*3 -6.8 C 0 km/h
849 21-01-2019 22:40:00 -6.9 C 2.76 g/m*3 -6.9 C 0 km/h
850 21-01-2019 22:45:00 -6.9 C 2.79 g/m*3 -6.9 C 0 km/h
Sensor: Nr:Datum:Temp:Abs-Feuchte:Windchill:Wind:
Aussen-T/F 851 21-01-2019 22:50:00 -6.9 C 2.79 g/m*3 -6.9 C 0 km/h
852 21-01-2019 22:55:00 -6.9 C 2.79 g/m*3 -6.9 C 0 km/h
853 21-01-2019 23:00:00 -6.9 C 2.79 g/m*3 -6.9 C 0 km/h
854 21-01-2019 23:05:00 -6.9 C 2.79 g/m*3 -6.9 C 0 km/h
855 21-01-2019 23:10:00 -7.1 C 2.75 g/m*3 -7.1 C 0 km/h
856 21-01-2019 23:15:00 -7.1 C 2.75 g/m*3 -7.1 C 0 km/h
857 21-01-2019 23:20:00 -7.1 C 2.72 g/m*3 -7.1 C 0 km/h
858 21-01-2019 23:25:00 -7.2 C 2.7 g/m*3 -7.2 C 0 km/h
859 21-01-2019 23:30:00 -7.2 C 2.73 g/m*3 -7.2 C 0 km/h
860 21-01-2019 23:35:00 -7.1 C 2.75 g/m*3 -7.1 C 0 km/h
861 21-01-2019 23:40:00 -7.1 C 2.75 g/m*3 -7.1 C 0 km/h
862 21-01-2019 23:45:00 -7.2 C 2.7 g/m*3 -7.2 C 0 km/h
863 21-01-2019 23:50:00 -7.2 C 2.73 g/m*3 -7.2 C 0 km/h
864 21-01-2019 23:55:00 -7.2 C 2.73 g/m*3 -7.2 C 0 km/h
865 22-01-2019 00:00:00 -7.3 C 2.68 g/m*3 -7.3 C 0 km/h
866 22-01-2019 00:05:00 -7.3 C 2.71 g/m*3 -7.3 C 0 km/h
867 22-01-2019 00:10:00 -7.3 C 2.71 g/m*3 -7.3 C 0 km/h
868 22-01-2019 00:15:00 -7.3 C 2.71 g/m*3 -7.3 C 0 km/h
869 22-01-2019 00:20:00 -7.4 C 2.66 g/m*3 -7.4 C 0 km/h
870 22-01-2019 00:25:00 -7.5 C 2.64 g/m*3 -7.5 C 0 km/h
871 22-01-2019 00:30:00 -7.6 C 2.62 g/m*3 -7.6 C 0 km/h
872 22-01-2019 00:35:00 -7.6 C 2.62 g/m*3 -7.6 C 0 km/h
873 22-01-2019 00:40:00 -7.7 C 2.6 g/m*3 -7.7 C 0 km/h
874 22-01-2019 00:45:00 -7.7 C 2.6 g/m*3 -7.7 C 0 km/h
875 22-01-2019 00:50:00 -7.7 C 2.6 g/m*3 -7.7 C 0 km/h
Sensor: Nr:Datum:Temp:Abs-Feuchte:Windchill:Wind:
Aussen-T/F 876 22-01-2019 00:55:00 -7.7 C 2.6 g/m*3 -7.7 C 0 km/h
877 22-01-2019 01:00:00 -7.8 C 2.58 g/m*3 -7.8 C 0 km/h
878 22-01-2019 01:05:00 -7.8 C 2.58 g/m*3 -7.8 C 0 km/h
879 22-01-2019 01:10:00 -7.8 C 2.58 g/m*3 -7.8 C 0 km/h
880 22-01-2019 01:15:00 -7.8 C 2.58 g/m*3 -7.8 C 0 km/h
881 22-01-2019 01:20:00 -7.8 C 2.58 g/m*3 -7.8 C 0 km/h
882 22-01-2019 01:25:00 -7.8 C 2.58 g/m*3 -7.8 C 0 km/h
883 22-01-2019 01:30:00 -7.7 C 2.63 g/m*3 -7.7 C 0 km/h
884 22-01-2019 01:35:00 -7.7 C 2.63 g/m*3 -7.7 C 0 km/h
885 22-01-2019 01:40:00 -7.8 C 2.58 g/m*3 -7.8 C 0 km/h
886 22-01-2019 01:45:00 -7.9 C 2.56 g/m*3 -7.9 C 0 km/h
887 22-01-2019 01:50:00 -7.9 C 2.56 g/m*3 -7.9 C 0 km/h
888 22-01-2019 01:55:00 -7.9 C 2.56 g/m*3 -7.9 C 0 km/h
889 22-01-2019 02:00:00 -8 C 2.54 g/m*3 -8 C 0 km/h
890 22-01-2019 02:05:00 -8.1 C 2.52 g/m*3 -8.1 C 0 km/h
891 22-01-2019 02:10:00 -8.1 C 2.52 g/m*3 -8.1 C 0 km/h
892 22-01-2019 02:15:00 -8.1 C 2.52 g/m*3 -8.1 C 0 km/h
893 22-01-2019 02:20:00 -8.2 C 2.51 g/m*3 -8.2 C 0 km/h
894 22-01-2019 02:25:00 -8 C 2.54 g/m*3 -8 C 0 km/h
895 22-01-2019 02:30:00 -7.9 C 2.56 g/m*3 -7.9 C 0 km/h
896 22-01-2019 02:35:00 -8 C 2.54 g/m*3 -8 C 0 km/h
897 22-01-2019 02:40:00 -8.1 C 2.52 g/m*3 -8.1 C 0 km/h
898 22-01-2019 02:45:00 -8.1 C 2.52 g/m*3 -8.1 C 0 km/h
899 22-01-2019 02:50:00 -8.1 C 2.52 g/m*3 -8.1 C 0 km/h
900 22-01-2019 02:55:00 -8.2 C 2.51 g/m*3 -8.2 C 0 km/h
Sensor: Nr:Datum:Temp:Abs-Feuchte:Windchill:Wind:
Aussen-T/F 901 22-01-2019 03:00:00 -8.2 C 2.51 g/m*3 -8.2 C 0 km/h
902 22-01-2019 03:05:00 -8.2 C 2.51 g/m*3 -8.2 C 0 km/h
903 22-01-2019 03:10:00 -8.2 C 2.51 g/m*3 -8.2 C 0 km/h
904 22-01-2019 03:15:00 -8.2 C 2.51 g/m*3 -8.2 C 0 km/h
905 22-01-2019 03:20:00 -8.2 C 2.51 g/m*3 -8.2 C 0 km/h
906 22-01-2019 03:25:00 -8.2 C 2.51 g/m*3 -8.2 C 0 km/h
907 22-01-2019 03:30:00 -8.2 C 2.51 g/m*3 -8.2 C 0 km/h
908 22-01-2019 03:35:00 -8.3 C 2.49 g/m*3 -8.3 C 0 km/h
909 22-01-2019 03:40:00 -8.3 C 2.49 g/m*3 -8.3 C 0 km/h
910 22-01-2019 03:45:00 -8.4 C 2.47 g/m*3 -8.4 C 0 km/h
911 22-01-2019 03:50:00 -8.4 C 2.47 g/m*3 -8.4 C 0 km/h
912 22-01-2019 03:55:00 -8.5 C 2.45 g/m*3 -8.5 C 0 km/h
913 22-01-2019 04:00:00 -8.5 C 2.45 g/m*3 -8.5 C 0 km/h
914 22-01-2019 04:05:00 -8.4 C 2.47 g/m*3 -8.4 C 0 km/h
915 22-01-2019 04:10:00 -8.4 C 2.47 g/m*3 -8.4 C 0 km/h
916 22-01-2019 04:15:00 -8.4 C 2.47 g/m*3 -8.4 C 0 km/h
917 22-01-2019 04:20:00 -8.5 C 2.45 g/m*3 -8.5 C 0 km/h
918 22-01-2019 04:25:00 -8.6 C 2.43 g/m*3 -8.6 C 0 km/h
919 22-01-2019 04:30:00 -8.6 C 2.43 g/m*3 -8.6 C 0 km/h
920 22-01-2019 04:35:00 -8.7 C 2.41 g/m*3 -8.7 C 0 km/h
921 22-01-2019 04:40:00 -8.7 C 2.41 g/m*3 -8.7 C 0 km/h
922 22-01-2019 04:45:00 -8.7 C 2.41 g/m*3 -8.7 C 0 km/h
923 22-01-2019 04:50:00 -8.7 C 2.41 g/m*3 -8.7 C 0 km/h
924 22-01-2019 04:55:00 -8.7 C 2.41 g/m*3 -8.7 C 0 km/h
925 22-01-2019 05:00:00 -8.6 C 2.43 g/m*3 -8.6 C 0 km/h
Sensor: Nr:Datum:Temp:Abs-Feuchte:Windchill:Wind:
Aussen-T/F 926 22-01-2019 05:05:00 -8.6 C 2.43 g/m*3 -8.6 C 0 km/h
927 22-01-2019 05:10:00 -8.5 C 2.45 g/m*3 -8.5 C 0 km/h
928 22-01-2019 05:15:00 -8.4 C 2.5 g/m*3 -8.4 C 0 km/h
929 22-01-2019 05:20:00 -8.3 C 2.49 g/m*3 -8.3 C 0 km/h
930 22-01-2019 05:25:00 -8.3 C 2.49 g/m*3 -8.3 C 0 km/h
931 22-01-2019 05:30:00 -8.4 C 2.47 g/m*3 -8.4 C 0 km/h
932 22-01-2019 05:35:00 -8.4 C 2.47 g/m*3 -8.4 C 0 km/h
933 22-01-2019 05:40:00 -8.6 C 2.43 g/m*3 -8.6 C 0 km/h
934 22-01-2019 05:45:00 -8.7 C 2.41 g/m*3 -8.7 C 0 km/h
935 22-01-2019 05:50:00 -8.7 C 2.41 g/m*3 -8.7 C 0 km/h
936 22-01-2019 05:55:00 -8.7 C 2.41 g/m*3 -8.7 C 0 km/h
937 22-01-2019 06:00:00 -8.7 C 2.41 g/m*3 -8.7 C 0 km/h
938 22-01-2019 06:05:00 -8.7 C 2.41 g/m*3 -8.7 C 0 km/h
939 22-01-2019 06:10:00 -8.7 C 2.41 g/m*3 -8.7 C 0 km/h
940 22-01-2019 06:15:00 -8.7 C 2.41 g/m*3 -8.7 C 0 km/h
941 22-01-2019 06:20:00 -8.7 C 2.41 g/m*3 -8.7 C 0 km/h
942 22-01-2019 06:25:00 -8.7 C 2.41 g/m*3 -8.7 C 0 km/h
943 22-01-2019 06:30:00 -8.7 C 2.41 g/m*3 -8.7 C 0 km/h
944 22-01-2019 06:35:00 -8.8 C 2.4 g/m*3 -8.8 C 0 km/h
945 22-01-2019 06:40:00 -8.8 C 2.4 g/m*3 -8.8 C 0 km/h
946 22-01-2019 06:45:00 -8.8 C 2.4 g/m*3 -8.8 C 0 km/h
947 22-01-2019 06:50:00 -8.8 C 2.4 g/m*3 -8.8 C 0 km/h
948 22-01-2019 06:55:00 -8.8 C 2.4 g/m*3 -8.8 C 0 km/h
949 22-01-2019 07:00:00 -8.7 C 2.41 g/m*3 -8.7 C 0 km/h
950 22-01-2019 07:05:00 -8.7 C 2.41 g/m*3 -8.7 C 0 km/h
Sensor: Nr:Datum:Temp:Abs-Feuchte:Windchill:Wind:
Aussen-T/F 951 22-01-2019 07:10:00 -8.6 C 2.43 g/m*3 -8.6 C 0 km/h
952 22-01-2019 07:15:00 -8.7 C 2.41 g/m*3 -8.7 C 0 km/h
953 22-01-2019 07:20:00 -8.7 C 2.41 g/m*3 -8.7 C 0 km/h
954 22-01-2019 07:25:00 -8.7 C 2.41 g/m*3 -8.7 C 0 km/h
955 22-01-2019 07:30:00 -8.7 C 2.41 g/m*3 -8.7 C 0 km/h
956 22-01-2019 07:35:00 -8.7 C 2.41 g/m*3 -8.7 C 0 km/h
957 22-01-2019 07:40:00 -8.7 C 2.41 g/m*3 -8.7 C 0 km/h
958 22-01-2019 07:45:00 -8.6 C 2.43 g/m*3 -8.6 C 0 km/h
959 22-01-2019 07:50:00 -8.5 C 2.45 g/m*3 -8.5 C 0 km/h
960 22-01-2019 07:55:00 -8.5 C 2.45 g/m*3 -8.5 C 0 km/h
961 22-01-2019 08:00:00 -8.6 C 2.43 g/m*3 -8.6 C 0 km/h
962 22-01-2019 08:05:00 -8.6 C 2.43 g/m*3 -8.6 C 0 km/h
963 22-01-2019 08:10:00 -8.6 C 2.43 g/m*3 -8.6 C 0 km/h
964 22-01-2019 08:15:00 -8.6 C 2.43 g/m*3 -8.6 C 0 km/h
965 22-01-2019 08:20:00 -8.3 C 2.51 g/m*3 -8.3 C 0 km/h
966 22-01-2019 08:25:00 -8.1 C 2.55 g/m*3 -8.1 C 0 km/h
967 22-01-2019 08:30:00 -8.1 C 2.55 g/m*3 -8.1 C 0 km/h
968 22-01-2019 08:35:00 -8 C 2.57 g/m*3 -8 C 0 km/h
969 22-01-2019 08:40:00 -7.9 C 2.59 g/m*3 -7.9 C 0 km/h
970 22-01-2019 08:45:00 -7.9 C 2.56 g/m*3 -7.9 C 0 km/h
971 22-01-2019 08:50:00 -7.9 C 2.56 g/m*3 -7.9 C 0 km/h
972 22-01-2019 08:55:00 -7.8 C 2.61 g/m*3 -7.8 C 0 km/h
973 22-01-2019 09:00:00 -7.8 C 2.61 g/m*3 -7.8 C 0 km/h
974 22-01-2019 09:05:00 -7.7 C 2.63 g/m*3 -7.7 C 0 km/h
975 22-01-2019 09:10:00 -7.6 C 2.65 g/m*3 -7.6 C 0 km/h
Sensor: Nr:Datum:Temp:Abs-Feuchte:Windchill:Wind:
Aussen-T/F 976 22-01-2019 09:15:00 -7.5 C 2.67 g/m*3 -7.5 C 0 km/h
977 22-01-2019 09:20:00 -7.4 C 2.69 g/m*3 -7.4 C 0 km/h
978 22-01-2019 09:25:00 -7.3 C 2.71 g/m*3 -7.3 C 0 km/h
979 22-01-2019 09:30:00 -7.3 C 2.71 g/m*3 -7.3 C 0 km/h
980 22-01-2019 09:35:00 -7.2 C 2.73 g/m*3 -7.2 C 0 km/h
981 22-01-2019 09:40:00 -7.2 C 2.73 g/m*3 -7.2 C 0 km/h
982 22-01-2019 09:45:00 -7.1 C 2.75 g/m*3 -7.1 C 0 km/h
983 22-01-2019 09:50:00 -7 C 2.77 g/m*3 -7 C 0 km/h
984 22-01-2019 09:55:00 -6.9 C 2.79 g/m*3 -6.9 C 0 km/h
985 22-01-2019 10:00:00 -6.8 C 2.81 g/m*3 -6.8 C 0 km/h
986 22-01-2019 10:05:00 -6.8 C 2.81 g/m*3 -6.8 C 0 km/h
987 22-01-2019 10:10:00 -6.7 C 2.83 g/m*3 -6.7 C 0 km/h
988 22-01-2019 10:15:00 -6.6 C 2.85 g/m*3 -6.6 C 0 km/h
989 22-01-2019 10:20:00 -6.5 C 2.87 g/m*3 -6.5 C 0 km/h
990 22-01-2019 10:25:00 -6.4 C 2.89 g/m*3 -6.4 C 0 km/h
991 22-01-2019 10:30:00 -6.3 C 2.91 g/m*3 -6.3 C 0 km/h
992 22-01-2019 10:35:00 -6.2 C 2.93 g/m*3 -6.2 C 0 km/h
993 22-01-2019 10:40:00 -6.1 C 2.96 g/m*3 -6.1 C 0 km/h
994 22-01-2019 10:45:00 -5.9 C 3.03 g/m*3 -5.9 C 0 km/h
995 22-01-2019 10:50:00 -5.8 C 3.05 g/m*3 -5.8 C 0 km/h
996 22-01-2019 10:55:00 -5.7 C 3.07 g/m*3 -5.7 C 0 km/h
997 22-01-2019 11:00:00 -5.6 C 3.1 g/m*3 -5.6 C 0 km/h
998 22-01-2019 11:05:00 -5.5 C 3.12 g/m*3 -5.5 C 0 km/h
999 22-01-2019 11:10:00 -5.4 C 3.14 g/m*3 -5.4 C 0 km/h
1000 22-01-2019 11:15:00 -5.3 C 3.17 g/m*3 -5.3 C 0 km/h
Sensor: Nr:Datum:Temp:Abs-Feuchte:Windchill:Wind:
Aussen-T/F 1001 22-01-2019 11:20:00 -5.2 C 3.19 g/m*3 -5.2 C 0 km/h
1002 22-01-2019 11:25:00 -5.1 C 3.21 g/m*3 -5.1 C 0 km/h
1003 22-01-2019 11:30:00 -4.9 C 3.26 g/m*3 -4.9 C 0 km/h
1004 22-01-2019 11:35:00 -4.8 C 3.28 g/m*3 -4.8 C 0 km/h
1005 22-01-2019 11:40:00 -4.7 C 3.31 g/m*3 -4.7 C 0 km/h
1006 22-01-2019 11:45:00 -4.6 C 3.33 g/m*3 -4.6 C 0 km/h
1007 22-01-2019 11:50:00 -4.5 C 3.35 g/m*3 -4.5 C 0 km/h
1008 22-01-2019 11:55:00 -4.3 C 3.4 g/m*3 -4.3 C 0 km/h
1009 22-01-2019 12:00:00 -4.2 C 3.43 g/m*3 -4.2 C 0 km/h
1010 22-01-2019 12:05:00 -4.1 C 3.45 g/m*3 -4.1 C 0 km/h
1011 22-01-2019 12:10:00 -3.8 C 3.53 g/m*3 -3.8 C 0 km/h
1012 22-01-2019 12:15:00 -3.6 C 3.58 g/m*3 -3.6 C 0 km/h
1013 22-01-2019 12:20:00 -3.4 C 3.63 g/m*3 -3.4 C 0 km/h
1014 22-01-2019 12:25:00 -3.3 C 3.65 g/m*3 -3.3 C 0 km/h
1015 22-01-2019 12:30:00 -3.1 C 3.71 g/m*3 -3.1 C 0 km/h
1016 22-01-2019 12:35:00 -2.9 C 3.76 g/m*3 -2.9 C 0 km/h
1017 22-01-2019 12:40:00 -2.7 C 3.81 g/m*3 -2.7 C 0 km/h
1018 22-01-2019 12:45:00 -2.5 C 3.87 g/m*3 -2.5 C 0 km/h
1019 22-01-2019 12:50:00 -2.3 C 3.92 g/m*3 -2.3 C 0 km/h
1020 22-01-2019 12:55:00 -2.2 C 3.95 g/m*3 -4.72 C 6.4 km/h
1021 22-01-2019 13:00:00 -2 C 3.96 g/m*3 -4.49 C 6.4 km/h
1022 22-01-2019 13:05:00 -1.8 C 4.02 g/m*3 -1.8 C 1.6 km/h
1023 22-01-2019 13:10:00 -1.7 C 4 g/m*3 -1.7 C 1.6 km/h
1024 22-01-2019 13:15:00 -1.7 C 4 g/m*3 -1.7 C 3.2 km/h
1025 22-01-2019 13:20:00 -1.6 C 3.99 g/m*3 -1.6 C 4.8 km/h
Sensor: Nr:Datum:Temp:Abs-Feuchte:Windchill:Wind:
Aussen-T/F 1026 22-01-2019 13:25:00 -1.4 C 4.04 g/m*3 -3.8 C 6.4 km/h
1027 22-01-2019 13:30:00 -1.3 C 4.03 g/m*3 -1.3 C 4.8 km/h
1028 22-01-2019 13:35:00 -1.3 C 4.07 g/m*3 -1.3 C 0 km/h
1029 22-01-2019 13:40:00 -1.2 C 4.06 g/m*3 -1.2 C 3.2 km/h
1030 22-01-2019 13:45:00 -1.2 C 4.06 g/m*3 -1.2 C 3.2 km/h
1031 22-01-2019 13:50:00 -1.2 C 4.01 g/m*3 -1.2 C 4.8 km/h
1032 22-01-2019 13:55:00 -1.1 C 4.04 g/m*3 -1.1 C 4.8 km/h
1033 22-01-2019 14:00:00 -1.1 C 4 g/m*3 -1.1 C 4.8 km/h
1034 22-01-2019 14:05:00 -1.1 C 4 g/m*3 -1.1 C 1.6 km/h
1035 22-01-2019 14:10:00 -0.9 C 4.05 g/m*3 -3.22 C 6.4 km/h
1036 22-01-2019 14:15:00 -0.9 C 4.05 g/m*3 -0.9 C 4.8 km/h
1037 22-01-2019 14:20:00 -0.9 C 4.05 g/m*3 -0.9 C 4.8 km/h
1038 22-01-2019 14:25:00 -0.9 C 4.05 g/m*3 -0.9 C 4.8 km/h
1039 22-01-2019 14:30:00 -0.9 C 4.01 g/m*3 -0.9 C 4.8 km/h
1040 22-01-2019 14:35:00 -0.8 C 4.08 g/m*3 -0.8 C 4.8 km/h
1041 22-01-2019 14:40:00 -0.8 C 4.03 g/m*3 -0.8 C 3.2 km/h
1042 22-01-2019 14:45:00 -0.8 C 4.03 g/m*3 -0.8 C 3.2 km/h
1043 22-01-2019 14:50:00 -0.8 C 4.03 g/m*3 -0.8 C 4.8 km/h
1044 22-01-2019 14:55:00 -0.8 C 3.99 g/m*3 -3.11 C 6.4 km/h
1045 22-01-2019 15:00:00 -0.8 C 4.03 g/m*3 -0.8 C 4.8 km/h
1046 22-01-2019 15:05:00 -0.9 C 3.96 g/m*3 -3.22 C 6.4 km/h
1047 22-01-2019 15:10:00 -0.9 C 3.96 g/m*3 -0.9 C 3.2 km/h
1048 22-01-2019 15:15:00 -1 C 3.93 g/m*3 -1 C 1.6 km/h
1049 22-01-2019 15:20:00 -0.9 C 4.01 g/m*3 -0.9 C 3.2 km/h
1050 22-01-2019 15:25:00 -1 C 3.98 g/m*3 -1 C 1.6 km/h
Sensor: Nr:Datum:Temp:Abs-Feuchte:Windchill:Wind:
Aussen-T/F 1051 22-01-2019 15:30:00 -1 C 3.98 g/m*3 -1 C 3.2 km/h
1052 22-01-2019 15:35:00 -1 C 3.98 g/m*3 -1 C 1.6 km/h
1053 22-01-2019 15:40:00 -1.1 C 3.91 g/m*3 -1.1 C 4.8 km/h
1054 22-01-2019 15:45:00 -1.1 C 3.91 g/m*3 -1.1 C 4.8 km/h
1055 22-01-2019 15:50:00 -1.1 C 3.95 g/m*3 -3.45 C 6.4 km/h
1056 22-01-2019 15:55:00 -1.1 C 3.95 g/m*3 -1.1 C 1.6 km/h
1057 22-01-2019 16:00:00 -1.1 C 3.91 g/m*3 -1.1 C 1.6 km/h
1058 22-01-2019 16:05:00 -1.1 C 3.95 g/m*3 -1.1 C 0 km/h
1059 22-01-2019 16:10:00 -1.1 C 3.91 g/m*3 -1.1 C 3.2 km/h
1060 22-01-2019 16:15:00 -1.2 C 3.88 g/m*3 -1.2 C 4.8 km/h
1061 22-01-2019 16:20:00 -1.2 C 3.88 g/m*3 -1.2 C 3.2 km/h
1062 22-01-2019 16:25:00 -1.2 C 3.88 g/m*3 -1.2 C 1.6 km/h
1063 22-01-2019 16:30:00 -1.2 C 3.88 g/m*3 -1.2 C 4.8 km/h
1064 22-01-2019 16:35:00 -1.3 C 3.85 g/m*3 -3.68 C 6.4 km/h
1065 22-01-2019 16:40:00 -1.3 C 3.85 g/m*3 -1.3 C 4.8 km/h
1066 22-01-2019 16:45:00 -1.3 C 3.85 g/m*3 -1.3 C 0 km/h
1067 22-01-2019 16:50:00 -1.3 C 3.85 g/m*3 -1.3 C 3.2 km/h
1068 22-01-2019 16:55:00 -1.4 C 3.82 g/m*3 -1.4 C 1.6 km/h
1069 22-01-2019 17:00:00 -1.5 C 3.84 g/m*3 -1.5 C 0 km/h
1070 22-01-2019 17:05:00 -1.6 C 3.77 g/m*3 -1.6 C 0 km/h
1071 22-01-2019 17:10:00 -1.8 C 3.72 g/m*3 -1.8 C 0 km/h
1072 22-01-2019 17:15:00 -1.9 C 3.69 g/m*3 -1.9 C 0 km/h
1073 22-01-2019 17:20:00 -2.1 C 3.68 g/m*3 -2.1 C 0 km/h
1074 22-01-2019 17:25:00 -2.2 C 3.66 g/m*3 -2.2 C 0 km/h
1075 22-01-2019 17:30:00 -2.3 C 3.63 g/m*3 -2.3 C 1.6 km/h
Sensor: Nr:Datum:Temp:Abs-Feuchte:Windchill:Wind:
Aussen-T/F 1076 22-01-2019 17:35:00 -2.4 C 3.65 g/m*3 -2.4 C 1.6 km/h
1077 22-01-2019 17:40:00 -2.6 C 3.6 g/m*3 -2.6 C 0 km/h
1078 22-01-2019 17:45:00 -2.7 C 3.57 g/m*3 -2.7 C 0 km/h
1079 22-01-2019 17:50:00 -2.8 C 3.55 g/m*3 -2.8 C 0 km/h
1080 22-01-2019 17:55:00 -2.8 C 3.55 g/m*3 -2.8 C 1.6 km/h
1081 22-01-2019 18:00:00 -2.9 C 3.56 g/m*3 -2.9 C 0 km/h
1082 22-01-2019 18:05:00 -2.9 C 3.56 g/m*3 -2.9 C 0 km/h
1083 22-01-2019 18:10:00 -2.9 C 3.56 g/m*3 -2.9 C 0 km/h
1084 22-01-2019 18:15:00 -2.9 C 3.56 g/m*3 -2.9 C 0 km/h
1085 22-01-2019 18:20:00 -2.9 C 3.6 g/m*3 -2.9 C 0 km/h
1086 22-01-2019 18:25:00 -2.9 C 3.6 g/m*3 -2.9 C 0 km/h
1087 22-01-2019 18:30:00 -2.9 C 3.6 g/m*3 -2.9 C 0 km/h
1088 22-01-2019 18:35:00 -2.9 C 3.6 g/m*3 -2.9 C 0 km/h
1089 22-01-2019 18:40:00 -2.8 C 3.63 g/m*3 -2.8 C 0 km/h
1090 22-01-2019 18:45:00 -2.8 C 3.63 g/m*3 -2.8 C 0 km/h
1091 22-01-2019 18:50:00 -2.8 C 3.63 g/m*3 -2.8 C 0 km/h
1092 22-01-2019 18:55:00 -2.8 C 3.63 g/m*3 -2.8 C 0 km/h
1093 22-01-2019 19:00:00 -2.8 C 3.63 g/m*3 -2.8 C 0 km/h
1094 22-01-2019 19:05:00 -2.9 C 3.6 g/m*3 -2.9 C 0 km/h
1095 22-01-2019 19:10:00 -2.9 C 3.6 g/m*3 -2.9 C 0 km/h
1096 22-01-2019 19:15:00 -3 C 3.57 g/m*3 -3 C 0 km/h
1097 22-01-2019 19:20:00 -3.1 C 3.55 g/m*3 -3.1 C 0 km/h
1098 22-01-2019 19:25:00 -3.1 C 3.55 g/m*3 -3.1 C 1.6 km/h
1099 22-01-2019 19:30:00 -3.2 C 3.52 g/m*3 -3.2 C 0 km/h
1100 22-01-2019 19:35:00 -3.2 C 3.52 g/m*3 -3.2 C 1.6 km/h
Sensor: Nr:Datum:Temp:Abs-Feuchte:Windchill:Wind:
Aussen-T/F 1101 22-01-2019 19:40:00 -3.2 C 3.52 g/m*3 -3.2 C 1.6 km/h
1102 22-01-2019 19:45:00 -3.3 C 3.5 g/m*3 -3.3 C 0 km/h
1103 22-01-2019 19:50:00 -3.3 C 3.5 g/m*3 -3.3 C 0 km/h
1104 22-01-2019 19:55:00 -3.3 C 3.5 g/m*3 -3.3 C 0 km/h
1105 22-01-2019 20:00:00 -3.3 C 3.54 g/m*3 -3.3 C 0 km/h
1106 22-01-2019 20:05:00 -3.2 C 3.56 g/m*3 -3.2 C 0 km/h
1107 22-01-2019 20:10:00 -3.2 C 3.56 g/m*3 -3.2 C 0 km/h
1108 22-01-2019 20:15:00 -3.2 C 3.56 g/m*3 -3.2 C 0 km/h
1109 22-01-2019 20:20:00 -3.2 C 3.56 g/m*3 -3.2 C 0 km/h
1110 22-01-2019 20:25:00 -3.1 C 3.59 g/m*3 -3.1 C 0 km/h
1111 22-01-2019 20:30:00 -3.1 C 3.59 g/m*3 -3.1 C 0 km/h
1112 22-01-2019 20:35:00 -3.1 C 3.59 g/m*3 -3.1 C 0 km/h
1113 22-01-2019 20:40:00 -3.1 C 3.59 g/m*3 -3.1 C 0 km/h
1114 22-01-2019 20:45:00 -3.1 C 3.59 g/m*3 -3.1 C 1.6 km/h
1115 22-01-2019 20:50:00 -3 C 3.65 g/m*3 -3 C 1.6 km/h
1116 22-01-2019 20:55:00 -2.9 C 3.68 g/m*3 -2.9 C 1.6 km/h
1117 22-01-2019 21:00:00 -2.9 C 3.64 g/m*3 -2.9 C 0 km/h
1118 22-01-2019 21:05:00 -2.8 C 3.67 g/m*3 -2.8 C 0 km/h
1119 22-01-2019 21:10:00 -2.8 C 3.67 g/m*3 -2.8 C 0 km/h
1120 22-01-2019 21:15:00 -2.8 C 3.67 g/m*3 -2.8 C 0 km/h
1121 22-01-2019 21:20:00 -2.7 C 3.69 g/m*3 -2.7 C 0 km/h
1122 22-01-2019 21:25:00 -2.7 C 3.73 g/m*3 -2.7 C 0 km/h
1123 22-01-2019 21:30:00 -2.7 C 3.73 g/m*3 -2.7 C 0 km/h
1124 22-01-2019 21:35:00 -2.7 C 3.73 g/m*3 -2.7 C 0 km/h
1125 22-01-2019 21:40:00 -2.6 C 3.76 g/m*3 -2.6 C 0 km/h
Sensor: Nr:Datum:Temp:Abs-Feuchte:Windchill:Wind:
Aussen-T/F 1126 22-01-2019 21:45:00 -2.6 C 3.76 g/m*3 -2.6 C 0 km/h
1127 22-01-2019 21:50:00 -2.5 C 3.78 g/m*3 -2.5 C 0 km/h
1128 22-01-2019 21:55:00 -2.5 C 3.78 g/m*3 -2.5 C 0 km/h
1129 22-01-2019 22:00:00 -2.4 C 3.81 g/m*3 -2.4 C 0 km/h
1130 22-01-2019 22:05:00 -2.4 C 3.81 g/m*3 -2.4 C 0 km/h
1131 22-01-2019 22:10:00 -2.4 C 3.81 g/m*3 -2.4 C 0 km/h
1132 22-01-2019 22:15:00 -2.4 C 3.81 g/m*3 -2.4 C 0 km/h
1133 22-01-2019 22:20:00 -2.4 C 3.81 g/m*3 -2.4 C 0 km/h
1134 22-01-2019 22:25:00 -2.4 C 3.77 g/m*3 -2.4 C 0 km/h
1135 22-01-2019 22:30:00 -2.4 C 3.77 g/m*3 -2.4 C 0 km/h
1136 22-01-2019 22:35:00 -2.4 C 3.77 g/m*3 -2.4 C 0 km/h
1137 22-01-2019 22:40:00 -2.4 C 3.77 g/m*3 -2.4 C 0 km/h
1138 22-01-2019 22:45:00 -2.3 C 3.84 g/m*3 -2.3 C 0 km/h
1139 22-01-2019 22:50:00 -2.3 C 3.8 g/m*3 -2.3 C 1.6 km/h
1140 22-01-2019 22:55:00 -2.3 C 3.8 g/m*3 -2.3 C 0 km/h
1141 22-01-2019 23:00:00 -2.2 C 3.82 g/m*3 -2.2 C 0 km/h
1142 22-01-2019 23:05:00 -2.2 C 3.82 g/m*3 -2.2 C 0 km/h
1143 22-01-2019 23:10:00 -2.2 C 3.82 g/m*3 -2.2 C 0 km/h
1144 22-01-2019 23:15:00 -2.2 C 3.82 g/m*3 -2.2 C 1.6 km/h
1145 22-01-2019 23:20:00 -2.2 C 3.82 g/m*3 -2.2 C 0 km/h
1146 22-01-2019 23:25:00 -2.1 C 3.85 g/m*3 -2.1 C 0 km/h
1147 22-01-2019 23:30:00 -2.1 C 3.85 g/m*3 -2.1 C 1.6 km/h
1148 22-01-2019 23:35:00 -2.1 C 3.85 g/m*3 -2.1 C 3.2 km/h
1149 22-01-2019 23:40:00 -2 C 3.88 g/m*3 -2 C 0 km/h
1150 22-01-2019 23:45:00 -1.9 C 3.91 g/m*3 -5 C 8.1 km/h
Sensor: Nr:Datum:Temp:Abs-Feuchte:Windchill:Wind:
Aussen-T/F 1151 22-01-2019 23:50:00 -1.9 C 3.86 g/m*3 -5 C 8.1 km/h
1152 22-01-2019 23:55:00 -1.8 C 3.89 g/m*3 -1.8 C 3.2 km/h
1153 23-01-2019 00:00:00 -1.8 C 3.89 g/m*3 -1.8 C 1.6 km/h
1154 23-01-2019 00:05:00 -1.8 C 3.85 g/m*3 -5.38 C 9.7 km/h
1155 23-01-2019 00:10:00 -1.7 C 3.87 g/m*3 -1.7 C 4.8 km/h
1156 23-01-2019 00:15:00 -1.7 C 3.83 g/m*3 -1.7 C 3.2 km/h
1157 23-01-2019 00:20:00 -1.7 C 3.83 g/m*3 -4.15 C 6.4 km/h
1158 23-01-2019 00:25:00 -1.6 C 3.81 g/m*3 -4.65 C 8.1 km/h
1159 23-01-2019 00:30:00 -1.6 C 3.81 g/m*3 -1.6 C 4.8 km/h
1160 23-01-2019 00:35:00 -1.6 C 3.81 g/m*3 -1.6 C 3.2 km/h
1161 23-01-2019 00:40:00 -1.6 C 3.81 g/m*3 -1.6 C 3.2 km/h
1162 23-01-2019 00:45:00 -1.6 C 3.81 g/m*3 -1.6 C 1.6 km/h
1163 23-01-2019 00:50:00 -1.6 C 3.86 g/m*3 -1.6 C 4.8 km/h
1164 23-01-2019 00:55:00 -1.6 C 3.86 g/m*3 -1.6 C 3.2 km/h
1165 23-01-2019 01:00:00 -1.6 C 3.86 g/m*3 -1.6 C 0 km/h
1166 23-01-2019 01:05:00 -1.6 C 3.86 g/m*3 -1.6 C 0 km/h
1167 23-01-2019 01:10:00 -1.6 C 3.86 g/m*3 -1.6 C 0 km/h
1168 23-01-2019 01:15:00 -1.6 C 3.86 g/m*3 -1.6 C 0 km/h
1169 23-01-2019 01:20:00 -1.6 C 3.86 g/m*3 -1.6 C 0 km/h
1170 23-01-2019 01:25:00 -1.6 C 3.9 g/m*3 -1.6 C 0 km/h
1171 23-01-2019 01:30:00 -1.6 C 3.9 g/m*3 -1.6 C 0 km/h
1172 23-01-2019 01:35:00 -1.6 C 3.9 g/m*3 -1.6 C 0 km/h
1173 23-01-2019 01:40:00 -1.7 C 3.87 g/m*3 -1.7 C 0 km/h
1174 23-01-2019 01:45:00 -1.7 C 3.87 g/m*3 -1.7 C 0 km/h
1175 23-01-2019 01:50:00 -1.7 C 3.87 g/m*3 -1.7 C 0 km/h
Sensor: Nr:Datum:Temp:Abs-Feuchte:Windchill:Wind:
Aussen-T/F 1176 23-01-2019 01:55:00 -1.7 C 3.92 g/m*3 -1.7 C 0 km/h
1177 23-01-2019 02:00:00 -1.7 C 3.92 g/m*3 -1.7 C 0 km/h
1178 23-01-2019 02:05:00 -1.7 C 3.92 g/m*3 -1.7 C 0 km/h
1179 23-01-2019 02:10:00 -1.7 C 3.92 g/m*3 -1.7 C 0 km/h
1180 23-01-2019 02:15:00 -1.7 C 3.92 g/m*3 -1.7 C 0 km/h
1181 23-01-2019 02:20:00 -1.7 C 3.92 g/m*3 -1.7 C 0 km/h
1182 23-01-2019 02:25:00 -1.7 C 3.92 g/m*3 -1.7 C 0 km/h
1183 23-01-2019 02:30:00 -1.7 C 3.92 g/m*3 -1.7 C 0 km/h
1184 23-01-2019 02:35:00 -1.7 C 3.92 g/m*3 -1.7 C 0 km/h
1185 23-01-2019 02:40:00 -1.7 C 3.92 g/m*3 -1.7 C 0 km/h
1186 23-01-2019 02:45:00 -1.7 C 3.92 g/m*3 -1.7 C 0 km/h
1187 23-01-2019 02:50:00 -1.7 C 3.92 g/m*3 -1.7 C 0 km/h
1188 23-01-2019 02:55:00 -1.7 C 3.96 g/m*3 -1.7 C 0 km/h
1189 23-01-2019 03:00:00 -1.7 C 3.96 g/m*3 -1.7 C 0 km/h
1190 23-01-2019 03:05:00 -1.7 C 3.96 g/m*3 -1.7 C 0 km/h
1191 23-01-2019 03:10:00 -1.7 C 3.96 g/m*3 -1.7 C 0 km/h
1192 23-01-2019 03:15:00 -1.8 C 3.93 g/m*3 -1.8 C 0 km/h
1193 23-01-2019 03:20:00 -1.8 C 3.93 g/m*3 -1.8 C 0 km/h
1194 23-01-2019 03:25:00 -1.8 C 3.93 g/m*3 -1.8 C 0 km/h
1195 23-01-2019 03:30:00 -1.8 C 3.93 g/m*3 -1.8 C 0 km/h
1196 23-01-2019 03:35:00 -1.8 C 3.93 g/m*3 -1.8 C 0 km/h
1197 23-01-2019 03:40:00 -1.8 C 3.93 g/m*3 -1.8 C 0 km/h
1198 23-01-2019 03:45:00 -1.8 C 3.98 g/m*3 -1.8 C 0 km/h
1199 23-01-2019 03:50:00 -1.8 C 3.98 g/m*3 -1.8 C 0 km/h
1200 23-01-2019 03:55:00 -1.8 C 3.93 g/m*3 -1.8 C 0 km/h
Sensor: Nr:Datum:Temp:Abs-Feuchte:Windchill:Wind:
Aussen-T/F 1201 23-01-2019 04:00:00 -1.8 C 3.98 g/m*3 -1.8 C 0 km/h
1202 23-01-2019 04:05:00 -1.8 C 3.98 g/m*3 -1.8 C 0 km/h
1203 23-01-2019 04:10:00 -1.8 C 3.98 g/m*3 -1.8 C 0 km/h
1204 23-01-2019 04:15:00 -1.8 C 3.98 g/m*3 -1.8 C 0 km/h
1205 23-01-2019 04:20:00 -1.8 C 3.98 g/m*3 -1.8 C 0 km/h
1206 23-01-2019 04:25:00 -1.8 C 3.98 g/m*3 -1.8 C 0 km/h
1207 23-01-2019 04:30:00 -1.8 C 3.98 g/m*3 -1.8 C 0 km/h
1208 23-01-2019 04:35:00 -1.8 C 3.98 g/m*3 -1.8 C 0 km/h
1209 23-01-2019 04:40:00 -1.8 C 3.98 g/m*3 -1.8 C 0 km/h
1210 23-01-2019 04:45:00 -1.8 C 3.98 g/m*3 -1.8 C 0 km/h
1211 23-01-2019 04:50:00 -1.9 C 3.95 g/m*3 -1.9 C 0 km/h
1212 23-01-2019 04:55:00 -1.9 C 3.95 g/m*3 -1.9 C 0 km/h
1213 23-01-2019 05:00:00 -1.9 C 3.95 g/m*3 -1.9 C 0 km/h
1214 23-01-2019 05:05:00 -1.9 C 3.95 g/m*3 -1.9 C 0 km/h
1215 23-01-2019 05:10:00 -1.9 C 3.95 g/m*3 -1.9 C 0 km/h
1216 23-01-2019 05:15:00 -2 C 3.92 g/m*3 -2 C 0 km/h
1217 23-01-2019 05:20:00 -2 C 3.92 g/m*3 -2 C 0 km/h
1218 23-01-2019 05:25:00 -2 C 3.92 g/m*3 -2 C 0 km/h
1219 23-01-2019 05:30:00 -2.1 C 3.93 g/m*3 -2.1 C 0 km/h
1220 23-01-2019 05:35:00 -2.1 C 3.89 g/m*3 -2.1 C 0 km/h
1221 23-01-2019 05:40:00 -2.1 C 3.89 g/m*3 -2.1 C 1.6 km/h
1222 23-01-2019 05:45:00 -2.1 C 3.89 g/m*3 -2.1 C 0 km/h
1223 23-01-2019 05:50:00 -2.1 C 3.93 g/m*3 -2.1 C 0 km/h
1224 23-01-2019 05:55:00 -2.1 C 3.93 g/m*3 -2.1 C 0 km/h
1225 23-01-2019 06:00:00 -2.1 C 3.93 g/m*3 -2.1 C 1.6 km/h
Sensor: Nr:Datum:Temp:Abs-Feuchte:Windchill:Wind:
Aussen-T/F 1226 23-01-2019 06:05:00 -2.1 C 3.93 g/m*3 -2.1 C 0 km/h
1227 23-01-2019 06:10:00 -2.2 C 3.91 g/m*3 -2.2 C 0 km/h
1228 23-01-2019 06:15:00 -2.2 C 3.91 g/m*3 -2.2 C 0 km/h
1229 23-01-2019 06:20:00 -2.2 C 3.91 g/m*3 -2.2 C 0 km/h
1230 23-01-2019 06:25:00 -2.2 C 3.91 g/m*3 -2.2 C 0 km/h
1231 23-01-2019 06:30:00 -2.2 C 3.91 g/m*3 -2.2 C 0 km/h
1232 23-01-2019 06:35:00 -2.2 C 3.91 g/m*3 -2.2 C 0 km/h
1233 23-01-2019 06:40:00 -2.2 C 3.91 g/m*3 -2.2 C 0 km/h
1234 23-01-2019 06:45:00 -2.2 C 3.91 g/m*3 -2.2 C 0 km/h
1235 23-01-2019 06:50:00 -2.2 C 3.91 g/m*3 -2.2 C 0 km/h
1236 23-01-2019 06:55:00 -2.2 C 3.91 g/m*3 -2.2 C 0 km/h
1237 23-01-2019 07:00:00 -2.2 C 3.91 g/m*3 -2.2 C 0 km/h
1238 23-01-2019 07:05:00 -2.2 C 3.91 g/m*3 -2.2 C 0 km/h
1239 23-01-2019 07:10:00 -2.2 C 3.91 g/m*3 -2.2 C 0 km/h
1240 23-01-2019 07:15:00 -2.3 C 3.88 g/m*3 -2.3 C 0 km/h
1241 23-01-2019 07:20:00 -2.3 C 3.88 g/m*3 -2.3 C 0 km/h
1242 23-01-2019 07:25:00 -2.3 C 3.88 g/m*3 -2.3 C 0 km/h
1243 23-01-2019 07:30:00 -2.3 C 3.88 g/m*3 -2.3 C 0 km/h
1244 23-01-2019 07:35:00 -2.3 C 3.88 g/m*3 -2.3 C 0 km/h
1245 23-01-2019 07:40:00 -2.3 C 3.88 g/m*3 -2.3 C 0 km/h
1246 23-01-2019 07:45:00 -2.4 C 3.85 g/m*3 -2.4 C 0 km/h
1247 23-01-2019 07:50:00 -2.4 C 3.85 g/m*3 -2.4 C 0 km/h
1248 23-01-2019 07:55:00 -2.4 C 3.85 g/m*3 -2.4 C 0 km/h
1249 23-01-2019 08:00:00 -2.4 C 3.85 g/m*3 -2.4 C 0 km/h
1250 23-01-2019 08:05:00 -2.4 C 3.85 g/m*3 -2.4 C 0 km/h
Sensor: Nr:Datum:Temp:Abs-Feuchte:Windchill:Wind:
Aussen-T/F 1251 23-01-2019 08:10:00 -2.4 C 3.85 g/m*3 -2.4 C 0 km/h
1252 23-01-2019 08:15:00 -2.4 C 3.85 g/m*3 -2.4 C 0 km/h
1253 23-01-2019 08:20:00 -2.4 C 3.85 g/m*3 -2.4 C 0 km/h
1254 23-01-2019 08:25:00 -2.4 C 3.85 g/m*3 -2.4 C 0 km/h
1255 23-01-2019 08:30:00 -2.4 C 3.85 g/m*3 -2.4 C 0 km/h
1256 23-01-2019 08:35:00 -2.4 C 3.85 g/m*3 -2.4 C 0 km/h
1257 23-01-2019 08:40:00 -2.4 C 3.85 g/m*3 -2.4 C 0 km/h
1258 23-01-2019 08:45:00 -2.4 C 3.85 g/m*3 -2.4 C 0 km/h
1259 23-01-2019 08:50:00 -2.4 C 3.85 g/m*3 -2.4 C 0 km/h
1260 23-01-2019 08:55:00 -2.4 C 3.85 g/m*3 -2.4 C 0 km/h
1261 23-01-2019 09:00:00 -2.4 C 3.85 g/m*3 -2.4 C 0 km/h
1262 23-01-2019 09:05:00 -2.4 C 3.85 g/m*3 -2.4 C 0 km/h
1263 23-01-2019 09:10:00 -2.4 C 3.85 g/m*3 -2.4 C 0 km/h
1264 23-01-2019 09:15:00 -2.3 C 3.88 g/m*3 -2.3 C 0 km/h
1265 23-01-2019 09:20:00 -2.3 C 3.88 g/m*3 -2.3 C 0 km/h
1266 23-01-2019 09:25:00 -2.3 C 3.92 g/m*3 -2.3 C 0 km/h
1267 23-01-2019 09:30:00 -2.3 C 3.92 g/m*3 -2.3 C 1.6 km/h
1268 23-01-2019 09:35:00 -2.3 C 3.92 g/m*3 -2.3 C 0 km/h
1269 23-01-2019 09:40:00 -2.2 C 3.95 g/m*3 -2.2 C 0 km/h
1270 23-01-2019 09:45:00 -2.2 C 3.95 g/m*3 -2.2 C 0 km/h
1271 23-01-2019 09:50:00 -2.1 C 3.98 g/m*3 -2.1 C 1.6 km/h
1272 23-01-2019 09:55:00 -2.1 C 3.98 g/m*3 -2.1 C 1.6 km/h
1273 23-01-2019 10:00:00 -2 C 4 g/m*3 -2 C 1.6 km/h
1274 23-01-2019 10:05:00 -1.9 C 3.99 g/m*3 -1.9 C 1.6 km/h
1275 23-01-2019 10:10:00 -1.9 C 3.99 g/m*3 -1.9 C 4.8 km/h
Sensor: Nr:Datum:Temp:Abs-Feuchte:Windchill:Wind:
Aussen-T/F 1276 23-01-2019 10:15:00 -1.8 C 4.02 g/m*3 -1.8 C 0 km/h
1277 23-01-2019 10:20:00 -1.8 C 4.02 g/m*3 -1.8 C 4.8 km/h
1278 23-01-2019 10:25:00 -1.8 C 4.02 g/m*3 -4.26 C 6.4 km/h
1279 23-01-2019 10:30:00 -1.7 C 4.05 g/m*3 -1.7 C 4.8 km/h
1280 23-01-2019 10:35:00 -1.7 C 4.05 g/m*3 -1.7 C 4.8 km/h
1281 23-01-2019 10:40:00 -1.7 C 4.05 g/m*3 -1.7 C 4.8 km/h
1282 23-01-2019 10:45:00 -1.7 C 4.05 g/m*3 -1.7 C 4.8 km/h
1283 23-01-2019 10:50:00 -1.6 C 4.07 g/m*3 -1.6 C 4.8 km/h
1284 23-01-2019 10:55:00 -1.5 C 4.1 g/m*3 -1.5 C 0 km/h
1285 23-01-2019 11:00:00 -1.4 C 4.13 g/m*3 -1.4 C 3.2 km/h
1286 23-01-2019 11:05:00 -1.4 C 4.09 g/m*3 -1.4 C 4.8 km/h
1287 23-01-2019 11:10:00 -1.4 C 4.09 g/m*3 -1.4 C 4.8 km/h
1288 23-01-2019 11:15:00 -1.3 C 4.12 g/m*3 -4.3 C 8.1 km/h
1289 23-01-2019 11:20:00 -1.3 C 4.07 g/m*3 -1.3 C 4.8 km/h
1290 23-01-2019 11:25:00 -1.3 C 4.07 g/m*3 -1.3 C 4.8 km/h
1291 23-01-2019 11:30:00 -1.3 C 4.07 g/m*3 -3.68 C 6.4 km/h
1292 23-01-2019 11:35:00 -1.2 C 4.1 g/m*3 -1.2 C 4.8 km/h
1293 23-01-2019 11:40:00 -1.2 C 4.1 g/m*3 -4.18 C 8.1 km/h
1294 23-01-2019 11:45:00 -1.1 C 4.09 g/m*3 -4.06 C 8.1 km/h
1295 23-01-2019 11:50:00 -1.1 C 4.09 g/m*3 -4.06 C 8.1 km/h
1296 23-01-2019 11:55:00 -1 C 4.07 g/m*3 -1 C 4.8 km/h
1297 23-01-2019 12:00:00 -0.9 C 4.1 g/m*3 -0.9 C 1.6 km/h
1298 23-01-2019 12:05:00 -0.8 C 4.13 g/m*3 -0.8 C 3.2 km/h
1299 23-01-2019 12:10:00 -0.8 C 4.08 g/m*3 -0.8 C 1.6 km/h
1300 23-01-2019 12:15:00 -0.8 C 4.03 g/m*3 -0.8 C 4.8 km/h
Sensor: Nr:Datum:Temp:Abs-Feuchte:Windchill:Wind:
Aussen-T/F 1301 23-01-2019 12:20:00 -0.8 C 4.03 g/m*3 -0.8 C 4.8 km/h
1302 23-01-2019 12:25:00 -0.8 C 3.99 g/m*3 -0.8 C 3.2 km/h
1303 23-01-2019 12:30:00 -0.7 C 4.02 g/m*3 -0.7 C 3.2 km/h
1304 23-01-2019 12:35:00 -0.7 C 4.02 g/m*3 -0.7 C 1.6 km/h
1305 23-01-2019 12:40:00 -0.7 C 4.02 g/m*3 -0.7 C 4.8 km/h
1306 23-01-2019 12:45:00 -0.7 C 3.92 g/m*3 -4.07 C 9.7 km/h
1307 23-01-2019 12:50:00 -0.7 C 3.92 g/m*3 -2.99 C 6.4 km/h
1308 23-01-2019 12:55:00 -0.7 C 3.97 g/m*3 -0.7 C 1.6 km/h
1309 23-01-2019 13:00:00 -0.7 C 3.97 g/m*3 -0.7 C 4.8 km/h
1310 23-01-2019 13:05:00 -0.7 C 3.97 g/m*3 -0.7 C 1.6 km/h
1311 23-01-2019 13:10:00 -0.7 C 3.97 g/m*3 -0.7 C 3.2 km/h
1312 23-01-2019 13:15:00 -0.7 C 3.97 g/m*3 -0.7 C 3.2 km/h
1313 23-01-2019 13:20:00 -0.7 C 3.92 g/m*3 -3.59 C 8.1 km/h
1314 23-01-2019 13:25:00 -0.7 C 3.92 g/m*3 -2.99 C 6.4 km/h
1315 23-01-2019 13:30:00 -0.7 C 3.88 g/m*3 -3.59 C 8.1 km/h
1316 23-01-2019 13:35:00 -0.7 C 3.92 g/m*3 -0.7 C 3.2 km/h
1317 23-01-2019 13:40:00 -0.7 C 3.88 g/m*3 -0.7 C 3.2 km/h
1318 23-01-2019 13:45:00 -0.7 C 3.88 g/m*3 -3.59 C 8.1 km/h
1319 23-01-2019 13:50:00 -0.7 C 3.92 g/m*3 -0.7 C 1.6 km/h
1320 23-01-2019 13:55:00 -0.7 C 3.88 g/m*3 -0.7 C 4.8 km/h
1321 23-01-2019 14:00:00 -0.7 C 3.88 g/m*3 -0.7 C 4.8 km/h
1322 23-01-2019 14:05:00 -0.6 C 3.9 g/m*3 -3.48 C 8.1 km/h
1323 23-01-2019 14:10:00 -0.7 C 3.88 g/m*3 -0.7 C 3.2 km/h
1324 23-01-2019 14:15:00 -0.7 C 3.83 g/m*3 -2.99 C 6.4 km/h
1325 23-01-2019 14:20:00 -0.7 C 3.88 g/m*3 -3.59 C 8.1 km/h
Sensor: Nr:Datum:Temp:Abs-Feuchte:Windchill:Wind:
Aussen-T/F 1326 23-01-2019 14:25:00 -0.7 C 3.88 g/m*3 -0.7 C 3.2 km/h
1327 23-01-2019 14:30:00 -0.7 C 3.88 g/m*3 -0.7 C 0 km/h
1328 23-01-2019 14:35:00 -0.7 C 3.83 g/m*3 -0.7 C 0 km/h
1329 23-01-2019 14:40:00 -0.7 C 3.83 g/m*3 -0.7 C 4.8 km/h
1330 23-01-2019 14:45:00 -0.8 C 3.8 g/m*3 -3.11 C 6.4 km/h
1331 23-01-2019 14:50:00 -0.8 C 3.8 g/m*3 -3.71 C 8.1 km/h
1332 23-01-2019 14:55:00 -0.8 C 3.85 g/m*3 -0.8 C 0 km/h
1333 23-01-2019 15:00:00 -0.8 C 3.8 g/m*3 -0.8 C 0 km/h
1334 23-01-2019 15:05:00 -0.8 C 3.85 g/m*3 -0.8 C 0 km/h
1335 23-01-2019 15:10:00 -0.8 C 3.8 g/m*3 -0.8 C 4.8 km/h
1336 23-01-2019 15:15:00 -0.8 C 3.85 g/m*3 -0.8 C 0 km/h
1337 23-01-2019 15:20:00 -0.8 C 3.8 g/m*3 -0.8 C 3.2 km/h
1338 23-01-2019 15:25:00 -0.8 C 3.76 g/m*3 -0.8 C 1.6 km/h
1339 23-01-2019 15:30:00 -0.8 C 3.8 g/m*3 -0.8 C 0 km/h
1340 23-01-2019 15:35:00 -0.8 C 3.8 g/m*3 -0.8 C 0 km/h
1341 23-01-2019 15:40:00 -0.8 C 3.8 g/m*3 -0.8 C 3.2 km/h
1342 23-01-2019 15:45:00 -0.8 C 3.8 g/m*3 -0.8 C 1.6 km/h
1343 23-01-2019 15:50:00 -0.8 C 3.76 g/m*3 -0.8 C 1.6 km/h
1344 23-01-2019 15:55:00 -0.8 C 3.8 g/m*3 -0.8 C 0 km/h
1345 23-01-2019 16:00:00 -0.8 C 3.8 g/m*3 -0.8 C 0 km/h
1346 23-01-2019 16:05:00 -0.8 C 3.8 g/m*3 -0.8 C 1.6 km/h
1347 23-01-2019 16:10:00 -0.8 C 3.8 g/m*3 -0.8 C 0 km/h
1348 23-01-2019 16:15:00 -0.8 C 3.85 g/m*3 -0.8 C 0 km/h
1349 23-01-2019 16:20:00 -0.8 C 3.85 g/m*3 -0.8 C 0 km/h
1350 23-01-2019 16:25:00 -0.8 C 3.85 g/m*3 -0.8 C 0 km/h
Sensor: Nr:Datum:Temp:Abs-Feuchte:Windchill:Wind:
Aussen-T/F 1351 23-01-2019 16:30:00 -0.8 C 3.85 g/m*3 -0.8 C 4.8 km/h
1352 23-01-2019 16:35:00 -0.8 C 3.85 g/m*3 -0.8 C 1.6 km/h
1353 23-01-2019 16:40:00 -0.9 C 3.82 g/m*3 -3.22 C 6.4 km/h
1354 23-01-2019 16:45:00 -0.9 C 3.78 g/m*3 -3.22 C 6.4 km/h
1355 23-01-2019 16:50:00 -0.9 C 3.82 g/m*3 -0.9 C 1.6 km/h
1356 23-01-2019 16:55:00 -0.9 C 3.82 g/m*3 -0.9 C 0 km/h
1357 23-01-2019 17:00:00 -0.9 C 3.87 g/m*3 -0.9 C 0 km/h
1358 23-01-2019 17:05:00 -1 C 3.84 g/m*3 -1 C 0 km/h
1359 23-01-2019 17:10:00 -1.1 C 3.82 g/m*3 -1.1 C 1.6 km/h
1360 23-01-2019 17:15:00 -1.1 C 3.82 g/m*3 -1.1 C 0 km/h
1361 23-01-2019 17:20:00 -1.1 C 3.86 g/m*3 -1.1 C 0 km/h
1362 23-01-2019 17:25:00 -1.1 C 3.86 g/m*3 -1.1 C 0 km/h
1363 23-01-2019 17:30:00 -1.2 C 3.79 g/m*3 -1.2 C 3.2 km/h
1364 23-01-2019 17:35:00 -1.2 C 3.79 g/m*3 -1.2 C 3.2 km/h
1365 23-01-2019 17:40:00 -1.2 C 3.79 g/m*3 -1.2 C 3.2 km/h
1366 23-01-2019 17:45:00 -1.2 C 3.79 g/m*3 -1.2 C 0 km/h
1367 23-01-2019 17:50:00 -1.2 C 3.83 g/m*3 -1.2 C 0 km/h
1368 23-01-2019 17:55:00 -1.3 C 3.81 g/m*3 -1.3 C 0 km/h
1369 23-01-2019 18:00:00 -1.3 C 3.85 g/m*3 -1.3 C 0 km/h
1370 23-01-2019 18:05:00 -1.3 C 3.85 g/m*3 -1.3 C 0 km/h
1371 23-01-2019 18:10:00 -1.3 C 3.85 g/m*3 -1.3 C 0 km/h
1372 23-01-2019 18:15:00 -1.3 C 3.85 g/m*3 -1.3 C 0 km/h
1373 23-01-2019 18:20:00 -1.3 C 3.85 g/m*3 -1.3 C 0 km/h
1374 23-01-2019 18:25:00 -1.4 C 3.78 g/m*3 -1.4 C 4.8 km/h
1375 23-01-2019 18:30:00 -1.4 C 3.82 g/m*3 -1.4 C 0 km/h
Sensor: Nr:Datum:Temp:Abs-Feuchte:Windchill:Wind:
Aussen-T/F 1376 23-01-2019 18:35:00 -1.4 C 3.82 g/m*3 -1.4 C 0 km/h
1377 23-01-2019 18:40:00 -1.4 C 3.82 g/m*3 -1.4 C 0 km/h
1378 23-01-2019 18:45:00 -1.4 C 3.82 g/m*3 -1.4 C 0 km/h
1379 23-01-2019 18:50:00 -1.5 C 3.8 g/m*3 -1.5 C 0 km/h
1380 23-01-2019 18:55:00 -1.5 C 3.8 g/m*3 -1.5 C 0 km/h
1381 23-01-2019 19:00:00 -1.5 C 3.8 g/m*3 -1.5 C 0 km/h
1382 23-01-2019 19:05:00 -1.5 C 3.8 g/m*3 -1.5 C 0 km/h
1383 23-01-2019 19:10:00 -1.6 C 3.77 g/m*3 -1.6 C 0 km/h
1384 23-01-2019 19:15:00 -1.6 C 3.73 g/m*3 -1.6 C 4.8 km/h
1385 23-01-2019 19:20:00 -1.5 C 3.71 g/m*3 -4.53 C 8.1 km/h
1386 23-01-2019 19:25:00 -1.4 C 3.74 g/m*3 -1.4 C 4.8 km/h
1387 23-01-2019 19:30:00 -1.4 C 3.78 g/m*3 -1.4 C 1.6 km/h
1388 23-01-2019 19:35:00 -1.4 C 3.78 g/m*3 -1.4 C 0 km/h
1389 23-01-2019 19:40:00 -1.4 C 3.78 g/m*3 -1.4 C 0 km/h
1390 23-01-2019 19:45:00 -1.5 C 3.75 g/m*3 -1.5 C 0 km/h
1391 23-01-2019 19:50:00 -1.5 C 3.8 g/m*3 -1.5 C 0 km/h
1392 23-01-2019 19:55:00 -1.6 C 3.77 g/m*3 -1.6 C 0 km/h
1393 23-01-2019 20:00:00 -1.6 C 3.77 g/m*3 -1.6 C 0 km/h
1394 23-01-2019 20:05:00 -1.6 C 3.77 g/m*3 -1.6 C 0 km/h
1395 23-01-2019 20:10:00 -1.6 C 3.77 g/m*3 -1.6 C 0 km/h
1396 23-01-2019 20:15:00 -1.6 C 3.81 g/m*3 -1.6 C 0 km/h
1397 23-01-2019 20:20:00 -1.7 C 3.79 g/m*3 -1.7 C 0 km/h
1398 23-01-2019 20:25:00 -1.7 C 3.79 g/m*3 -1.7 C 0 km/h
1399 23-01-2019 20:30:00 -1.7 C 3.79 g/m*3 -1.7 C 0 km/h
1400 23-01-2019 20:35:00 -1.7 C 3.79 g/m*3 -1.7 C 0 km/h
Sensor: Nr:Datum:Temp:Abs-Feuchte:Windchill:Wind:
Aussen-T/F 1401 23-01-2019 20:40:00 -1.8 C 3.76 g/m*3 -1.8 C 0 km/h
1402 23-01-2019 20:45:00 -1.8 C 3.76 g/m*3 -1.8 C 0 km/h
1403 23-01-2019 20:50:00 -1.8 C 3.8 g/m*3 -1.8 C 0 km/h
1404 23-01-2019 20:55:00 -1.8 C 3.76 g/m*3 -1.8 C 1.6 km/h
1405 23-01-2019 21:00:00 -1.8 C 3.76 g/m*3 -1.8 C 0 km/h
1406 23-01-2019 21:05:00 -1.8 C 3.76 g/m*3 -1.8 C 0 km/h
1407 23-01-2019 21:10:00 -1.8 C 3.76 g/m*3 -1.8 C 0 km/h
1408 23-01-2019 21:15:00 -1.8 C 3.76 g/m*3 -1.8 C 0 km/h
1409 23-01-2019 21:20:00 -1.8 C 3.76 g/m*3 -1.8 C 0 km/h
1410 23-01-2019 21:25:00 -1.8 C 3.76 g/m*3 -1.8 C 0 km/h
1411 23-01-2019 21:30:00 -1.8 C 3.76 g/m*3 -1.8 C 0 km/h
1412 23-01-2019 21:35:00 -1.8 C 3.76 g/m*3 -1.8 C 0 km/h
1413 23-01-2019 21:40:00 -1.8 C 3.8 g/m*3 -1.8 C 0 km/h
1414 23-01-2019 21:45:00 -1.8 C 3.8 g/m*3 -1.8 C 0 km/h
1415 23-01-2019 21:50:00 -1.9 C 3.78 g/m*3 -1.9 C 0 km/h
1416 23-01-2019 21:55:00 -1.9 C 3.78 g/m*3 -1.9 C 0 km/h
1417 23-01-2019 22:00:00 -1.9 C 3.74 g/m*3 -1.9 C 0 km/h
1418 23-01-2019 22:05:00 -1.9 C 3.74 g/m*3 -1.9 C 0 km/h
1419 23-01-2019 22:10:00 -1.9 C 3.74 g/m*3 -1.9 C 0 km/h
1420 23-01-2019 22:15:00 -1.9 C 3.74 g/m*3 -1.9 C 0 km/h
1421 23-01-2019 22:20:00 -1.9 C 3.74 g/m*3 -1.9 C 0 km/h
1422 23-01-2019 22:25:00 -1.8 C 3.8 g/m*3 -1.8 C 0 km/h
1423 23-01-2019 22:30:00 -1.8 C 3.76 g/m*3 -1.8 C 0 km/h
1424 23-01-2019 22:35:00 -1.8 C 3.8 g/m*3 -1.8 C 0 km/h
1425 23-01-2019 22:40:00 -1.9 C 3.78 g/m*3 -1.9 C 0 km/h
Sensor: Nr:Datum:Temp:Abs-Feuchte:Windchill:Wind:
Aussen-T/F 1426 23-01-2019 22:45:00 -1.9 C 3.78 g/m*3 -1.9 C 0 km/h
1427 23-01-2019 22:50:00 -1.9 C 3.78 g/m*3 -1.9 C 0 km/h
1428 23-01-2019 22:55:00 -1.9 C 3.78 g/m*3 -1.9 C 0 km/h
1429 23-01-2019 23:00:00 -1.9 C 3.78 g/m*3 -1.9 C 0 km/h
1430 23-01-2019 23:05:00 -1.9 C 3.78 g/m*3 -1.9 C 0 km/h
1431 23-01-2019 23:10:00 -1.8 C 3.8 g/m*3 -1.8 C 0 km/h
1432 23-01-2019 23:15:00 -1.9 C 3.78 g/m*3 -1.9 C 0 km/h
1433 23-01-2019 23:20:00 -1.9 C 3.78 g/m*3 -1.9 C 0 km/h
1434 23-01-2019 23:25:00 -1.9 C 3.78 g/m*3 -1.9 C 0 km/h
1435 23-01-2019 23:30:00 -1.9 C 3.78 g/m*3 -1.9 C 0 km/h
1436 23-01-2019 23:35:00 -1.8 C 3.8 g/m*3 -1.8 C 0 km/h
1437 23-01-2019 23:40:00 -1.9 C 3.78 g/m*3 -1.9 C 0 km/h
1438 23-01-2019 23:45:00 -1.9 C 3.78 g/m*3 -1.9 C 0 km/h
1439 23-01-2019 23:50:00 -1.9 C 3.78 g/m*3 -1.9 C 0 km/h
1440 23-01-2019 23:55:00 -1.9 C 3.78 g/m*3 -1.9 C 0 km/h

Legende:
   Min
   Max


Maximal/Minimal-Werte vom 19.01.2019 - 23.01.2019

Sensor Min Max Avg
Temp
(Aussen-T/F)
-8.8 °C
22-01-2019  06:35:00
0.2 °C
19-01-2019  14:50:00
-4.09 °C
Abs-Feuchte
(Aussen-T/F)
2.4 g/m*3
22-01-2019  06:35:00
4.67 g/m*3
19-01-2019  14:50:00
3.39 g/m*3
Windchill
(Aussen-T/F)
-8.8 C
22-01-2019  06:35:00
0.2 C
19-01-2019  14:50:00
-4.15 C

Die Daten stammen von einer Davis Vantage Pro 2 Wetter-Station und werden unter Linux mit der Software wview2wettercgi und aufbereitet. Alle Angaben erfolgen ohne Gewähr für ihre Vollständigkeit oder Richtigkeit.
Kontakt: Rainer Krienke krienke@uni-koblenz.de . Meine Webseiten an der Uni Koblenz oder privat.
Version: $Revision: 0.78 $